Data Archive--December, 2004

Date Time Heat Index Current Temp Wind Chill High Temp Low Temp Humidity Dew Point Wind Speed Gust Wind Direction Rain Barometer
12/01/2004 12:00 a -- 45.3 45.3 45.6 45.2 -- -- 0.0 3.0 N 0.00 29.918
12/01/2004 12:30 a -- 45.6 45.6 45.9 45.1 -- -- 0.0 4.0 N 0.00 29.899
12/01/2004 1:00 a -- 45.5 45.5 45.8 45.1 -- -- 0.0 1.0 --- 0.00 29.894
12/01/2004 1:30 a -- 45.8 45.8 46.1 45.6 -- -- 0.0 0.0 --- 0.00 29.903
12/01/2004 2:00 a -- 45.6 45.6 46.2 45.1 -- -- 0.0 0.0 --- 0.00 29.859
12/01/2004 2:30 a -- 45.6 45.6 45.9 45.2 -- -- 0.0 0.0 --- 0.00 29.837
12/01/2004 3:00 a -- 45.9 45.9 46.2 45.6 -- -- 0.0 0.0 --- 0.01 29.804
12/01/2004 3:30 a -- 45.6 45.6 45.9 45.1 -- -- 0.0 0.0 --- 0.02 29.773
12/01/2004 4:00 a -- 46.4 46.4 47.2 45.7 -- -- 0.0 3.0 N 0.08 29.748
12/01/2004 4:30 a -- 47.2 47.2 47.5 46.9 -- -- 1.0 6.0 N 0.08 29.716
12/01/2004 5:00 a -- 47.7 47.7 47.8 47.5 -- -- 0.0 0.0 --- 0.07 29.682
12/01/2004 5:30 a -- 48.1 48.1 49.7 47.6 -- -- 0.0 3.0 N 0.07 29.638
12/01/2004 6:00 a -- 49.4 49.4 50.6 48.7 -- -- 0.0 3.0 N 0.07 29.601
12/01/2004 6:30 a -- 49.7 49.7 50.7 49.2 -- -- 0.0 3.0 N 0.12 29.564
12/01/2004 7:00 a -- 50.1 50.1 50.6 49.5 -- -- 1.0 7.0 N 0.06 29.517
12/01/2004 7:30 a -- 50.8 50.8 51.0 50.6 -- -- 2.0 9.0 N 0.03 29.488
12/01/2004 8:00 a -- 50.8 50.8 51.3 50.7 -- -- 2.0 7.0 N 0.06 29.453
12/01/2004 8:30 a -- 51.8 51.8 52.1 51.2 -- -- 2.0 7.0 N 0.06 29.428
12/01/2004 9:00 a -- 52.1 52.1 52.4 52.0 -- -- 3.0 14.0 N 0.12 29.382
12/01/2004 9:30 a -- 52.9 52.9 53.5 52.3 -- -- 2.0 6.0 N 0.03 29.368
12/01/2004 10:00 a -- 54.1 54.1 54.6 53.5 -- -- 1.0 7.0 N 0.02 29.347
12/01/2004 10:30 a -- 55.2 55.2 55.8 54.5 -- -- 1.0 5.0 N 0.02 29.320
12/01/2004 11:00 a -- 55.5 55.5 55.9 54.7 -- -- 2.0 8.0 SSE 0.09 29.340
12/01/2004 11:30 a -- 53.6 53.6 54.7 52.0 -- -- 2.0 13.0 SE 0.03 29.366
12/01/2004 12:00 p -- 51.2 51.2 52.1 50.6 -- -- 2.0 8.0 SE 0.00 29.383
12/01/2004 12:30 p -- 52.5 52.5 54.5 51.1 -- -- 2.0 7.0 SE 0.00 29.363
12/01/2004 1:00 p -- 55.3 55.3 56.5 53.9 -- -- 2.0 10.0 SE 0.00 29.367
12/01/2004 1:30 p -- 55.4 55.4 56.4 54.9 -- -- 3.0 11.0 SSE 0.00 29.372
12/01/2004 2:00 p -- 55.2 55.2 55.6 54.7 -- -- 4.0 14.0 SE 0.01 29.405
12/01/2004 2:30 p -- 52.7 52.7 55.0 51.7 -- -- 4.0 18.0 SE 0.00 29.435
12/01/2004 3:00 p -- 52.1 52.1 52.7 51.3 -- -- 4.0 17.0 SE 0.00 29.479
12/01/2004 3:30 p -- 51.0 51.0 51.5 50.2 -- -- 4.0 14.0 SE 0.00 29.480
12/01/2004 4:00 p -- 49.7 49.7 50.2 49.0 -- -- 4.0 16.0 SE 0.00 29.507
12/01/2004 4:30 p -- 49.0 49.0 49.3 48.5 -- -- 3.0 14.0 SE 0.00 29.531
12/01/2004 5:00 p -- 48.8 48.8 49.2 48.5 -- -- 4.0 14.0 SE 0.00 29.556
12/01/2004 5:30 p -- 48.5 48.5 48.9 47.7 -- -- 4.0 13.0 SE 0.00 29.592
12/01/2004 6:00 p -- 48.2 48.2 48.5 47.7 -- -- 3.0 11.0 SE 0.00 29.629
12/01/2004 6:30 p -- 47.7 47.7 48.2 47.3 -- -- 3.0 8.0 SE 0.00 29.657
12/01/2004 7:00 p -- 47.2 47.2 47.9 46.7 -- -- 1.0 7.0 SE 0.00 29.675
12/01/2004 7:30 p -- 46.4 46.4 47.3 46.0 -- -- 1.0 12.0 SE 0.00 29.704
12/01/2004 8:00 p -- 46.2 46.2 46.6 45.8 -- -- 1.0 8.0 SE 0.00 29.717
12/01/2004 8:30 p -- 45.7 45.7 46.3 45.2 -- -- 1.0 6.0 SE 0.00 29.741
12/01/2004 9:00 p -- 45.4 45.4 45.9 44.8 -- -- 2.0 8.0 SE 0.00 29.762
12/01/2004 9:30 p -- 44.8 44.8 45.2 44.3 -- -- 2.0 8.0 SE 0.00 29.774
12/01/2004 10:00 p -- 44.2 44.2 44.6 43.5 -- -- 2.0 9.0 SE 0.00 29.790
12/01/2004 10:30 p -- 43.4 43.4 44.0 42.7 -- -- 1.0 8.0 SE 0.00 29.812
12/01/2004 11:00 p -- 42.7 42.7 43.1 42.3 -- -- 1.0 7.0 SE 0.00 29.824
12/01/2004 11:30 p -- 42.4 42.4 42.7 41.9 -- -- 2.0 7.0 SE 0.00 29.828
12/02/2004 12:00 a -- 41.8 41.8 42.3 41.3 -- -- 1.0 5.0 SE 0.00 29.837
12/02/2004 12:30 a -- 41.0 41.0 41.5 40.5 -- -- 0.0 4.0 SE 0.00 29.846
12/02/2004 1:00 a -- 40.5 40.5 41.0 40.0 -- -- 0.0 5.0 SE 0.00 29.854
12/02/2004 1:30 a -- 40.2 40.2 40.9 39.7 -- -- 0.0 4.0 SE 0.00 29.853
12/02/2004 2:00 a -- 39.9 39.9 40.2 39.6 -- -- 0.0 4.0 SSE 0.00 29.859
12/02/2004 2:30 a -- 39.5 39.5 39.9 39.1 -- -- 0.0 3.0 SSE 0.00 29.878
12/02/2004 3:00 a -- 39.2 39.2 39.6 38.9 -- -- 0.0 2.0 SSE 0.00 29.886
12/02/2004 3:30 a -- 39.2 39.2 39.5 38.9 -- -- 0.0 2.0 SSE 0.00 29.883
12/02/2004 4:00 a -- 39.0 39.0 39.3 38.9 -- -- 0.0 2.0 SE 0.00 29.892
12/02/2004 4:30 a -- 38.6 38.6 39.1 38.3 -- -- 0.0 2.0 SE 0.00 29.889
12/02/2004 5:00 a -- 37.9 37.9 38.3 37.3 -- -- 0.0 0.0 --- 0.00 29.892
12/02/2004 5:30 a -- 37.5 37.5 37.9 37.1 -- -- 0.0 2.0 --- 0.00 29.892
12/02/2004 6:00 a -- 37.5 37.5 38.1 37.0 -- -- 0.0 1.0 --- 0.00 29.907
12/02/2004 6:30 a -- 37.3 37.3 37.7 36.9 -- -- 0.0 2.0 SE 0.00 29.924
12/02/2004 7:00 a -- 37.2 37.2 37.6 36.9 -- -- 0.0 0.0 --- 0.00 29.935
12/02/2004 7:30 a -- 37.9 37.9 39.1 37.0 -- -- 0.0 2.0 SSE 0.00 29.946
12/02/2004 8:00 a -- 39.5 39.5 40.1 38.9 -- -- 0.0 4.0 SE 0.00 29.958
12/02/2004 8:30 a -- 40.7 40.7 41.1 39.9 -- -- 0.0 2.0 SE 0.00 29.971
12/02/2004 9:00 a -- 41.5 41.5 42.2 40.7 -- -- 0.0 2.0 SSE 0.00 29.958
12/02/2004 9:30 a -- 42.7 42.7 43.3 42.0 -- -- 0.0 3.0 SSW 0.00 29.972
12/02/2004 10:00 a -- 43.6 43.6 44.6 43.0 -- -- 1.0 4.0 SE 0.00 29.974
12/02/2004 10:30 a -- 44.6 44.6 45.2 44.1 -- -- 1.0 6.0 SE 0.00 29.966
12/02/2004 11:00 a -- 45.5 45.5 47.2 44.6 -- -- 1.0 5.0 SE 0.00 29.955
12/02/2004 11:30 a -- 47.2 47.2 48.6 46.2 -- -- 1.0 4.0 SE 0.00 29.945
12/02/2004 12:00 p -- 48.9 48.9 49.6 48.2 -- -- 1.0 5.0 SE 0.00 29.935
12/02/2004 12:30 p -- 48.9 48.9 49.4 48.4 -- -- 1.0 6.0 SE 0.00 29.929
12/02/2004 1:00 p -- 49.8 49.8 50.9 48.8 -- -- 1.0 6.0 SSE 0.00 29.916
12/02/2004 1:30 p -- 48.9 48.9 49.9 47.8 -- -- 2.0 7.0 SE 0.00 29.905
12/02/2004 2:00 p -- 48.1 48.1 48.7 47.5 -- -- 2.0 6.0 SE 0.00 29.889
12/02/2004 2:30 p -- 48.1 48.1 48.4 47.6 -- -- 1.0 5.0 SE 0.00 29.887
12/02/2004 3:00 p -- 47.3 47.3 48.0 47.1 -- -- 0.0 3.0 SE 0.00 29.881
12/02/2004 3:30 p -- 46.6 46.6 47.3 46.1 -- -- 0.0 3.0 ESE 0.00 29.881
12/02/2004 4:00 p -- 45.5 45.5 46.2 44.8 -- -- 0.0 4.0 SE 0.00 29.877
12/02/2004 4:30 p -- 43.7 43.7 44.8 42.6 -- -- 0.0 0.0 --- 0.00 29.867
12/02/2004 5:00 p -- 41.5 41.5 42.6 40.4 -- -- 0.0 0.0 --- 0.00 29.865
12/02/2004 5:30 p -- 39.6 39.6 40.5 38.9 -- -- 0.0 0.0 --- 0.00 29.864
12/02/2004 6:00 p -- 38.4 38.4 38.9 37.8 -- -- 0.0 0.0 --- 0.00 29.863
12/02/2004 6:30 p -- 37.2 37.2 37.8 36.5 -- -- 0.0 0.0 --- 0.00 29.862
12/02/2004 7:00 p -- 36.2 36.2 36.7 35.3 -- -- 0.0 0.0 --- 0.00 29.867
12/02/2004 7:30 p -- 35.1 35.1 35.5 34.8 -- -- 0.0 0.0 --- 0.00 29.863
12/02/2004 8:00 p -- 34.8 34.8 35.2 34.3 -- -- 0.0 0.0 --- 0.00 29.868
12/02/2004 8:30 p -- 34.2 34.2 34.5 34.0 -- -- 0.0 0.0 --- 0.00 29.862
12/02/2004 9:00 p -- 33.5 33.5 34.3 32.7 -- -- 0.0 0.0 --- 0.00 29.854
12/02/2004 9:30 p -- 33.2 33.2 34.0 32.5 -- -- 0.0 0.0 --- 0.00 29.829
12/02/2004 10:00 p -- 33.2 33.2 34.5 32.3 -- -- 0.0 0.0 --- 0.00 29.815
12/02/2004 10:30 p -- 31.9 31.9 32.6 31.3 -- -- 0.0 0.0 --- 0.00 29.804
12/02/2004 11:00 p -- 31.9 31.9 32.2 31.3 -- -- 0.0 0.0 --- 0.00 29.796
12/02/2004 11:30 p -- 31.7 31.7 32.3 31.1 -- -- 0.0 0.0 --- 0.00 29.784
12/03/2004 12:00 a -- 31.4 31.4 31.6 31.2 -- -- 0.0 0.0 --- 0.00 29.763
12/03/2004 12:30 a -- 31.3 31.3 31.6 31.1 -- -- 0.0 0.0 --- 0.00 29.751
12/03/2004 1:00 a -- 31.1 31.1 31.5 30.9 -- -- 0.0 0.0 --- 0.00 29.736
12/03/2004 1:30 a -- 30.7 30.7 31.1 30.4 -- -- 0.0 0.0 --- 0.00 29.722
12/03/2004 2:00 a -- 31.7 31.7 33.0 30.8 -- -- 0.0 0.0 --- 0.00 29.726
12/03/2004 2:30 a -- 33.4 33.4 33.9 32.6 -- -- 0.0 0.0 --- 0.00 29.713
12/03/2004 3:00 a -- 34.3 34.3 34.7 33.8 -- -- 0.0 0.0 --- 0.00 29.699
12/03/2004 3:30 a -- 34.7 34.7 35.1 34.3 -- -- 0.0 0.0 --- 0.00 29.689
12/03/2004 4:00 a -- 34.7 34.7 35.2 34.3 -- -- 0.0 0.0 --- 0.00 29.679
12/03/2004 4:30 a -- 34.6 34.6 35.4 33.6 -- -- 0.0 0.0 --- 0.00 29.672
12/03/2004 5:00 a -- 33.1 33.1 33.7 32.1 -- -- 0.0 0.0 --- 0.00 29.661
12/03/2004 5:30 a -- 32.4 32.4 33.2 31.8 -- -- 0.0 2.0 SE 0.00 29.672
12/03/2004 6:00 a -- 32.7 32.7 33.4 32.0 -- -- 0.0 0.0 --- 0.00 29.672
12/03/2004 6:30 a -- 31.6 31.6 32.2 30.7 -- -- 0.0 1.0 SE 0.00 29.670
12/03/2004 7:00 a -- 30.9 30.9 31.6 30.5 -- -- 0.0 0.0 --- 0.00 29.680
12/03/2004 7:30 a -- 30.5 30.5 30.9 29.9 -- -- 0.0 0.0 --- 0.00 29.676
12/03/2004 8:00 a -- 31.7 31.7 33.7 30.9 -- -- 0.0 0.0 --- 0.00 29.681
12/03/2004 8:30 a -- 35.4 35.4 36.8 33.7 -- -- 0.0 2.0 SE 0.00 29.695
12/03/2004 9:00 a -- 37.9 37.9 38.9 36.7 -- -- 0.0 0.0 --- 0.00 29.689
12/03/2004 9:30 a -- 40.1 40.1 41.6 38.9 -- -- 0.0 0.0 --- 0.00 29.694
12/03/2004 10:00 a -- 42.8 42.8 44.2 41.5 -- -- 0.0 0.0 --- 0.00 29.700
12/03/2004 10:30 a -- 44.9 44.9 46.0 44.0 -- -- 1.0 9.0 SSE 0.00 29.689
12/03/2004 11:00 a -- 46.9 46.9 47.5 45.9 -- -- 1.0 7.0 SSE 0.00 29.674
12/03/2004 11:30 a -- 47.8 47.8 48.7 47.0 -- -- 1.0 8.0 SE 0.00 29.665
12/03/2004 12:00 p -- 47.5 47.5 48.1 47.0 -- -- 2.0 12.0 SE 0.00 29.663
12/03/2004 12:30 p -- 48.9 48.9 50.7 47.3 -- -- 1.0 9.0 SE 0.00 29.662
12/03/2004 1:00 p -- 47.2 47.2 48.8 46.5 -- -- 2.0 8.0 SE 0.00 29.672
12/03/2004 1:30 p -- 48.8 48.8 50.9 46.7 -- -- 2.0 8.0 SE 0.00 29.673
12/03/2004 2:00 p -- 48.3 48.3 48.9 47.4 -- -- 3.0 11.0 SE 0.00 29.676
12/03/2004 2:30 p -- 47.6 47.6 49.0 46.3 -- -- 2.0 7.0 SE 0.00 29.684
12/03/2004 3:00 p -- 46.9 46.9 47.3 46.3 -- -- 2.0 7.0 SE 0.00 29.689
12/03/2004 3:30 p -- 46.6 46.6 47.2 45.9 -- -- 2.0 11.0 SE 0.00 29.712
12/03/2004 4:00 p -- 45.5 45.5 46.3 44.9 -- -- 2.0 7.0 SE 0.00 29.724
12/03/2004 4:30 p -- 43.8 43.8 45.2 42.7 -- -- 1.0 8.0 SE 0.00 29.741
12/03/2004 5:00 p -- 42.4 42.4 43.0 41.7 -- -- 0.0 4.0 SSE 0.00 29.759
12/03/2004 5:30 p -- 41.4 41.4 41.9 40.6 -- -- 0.0 3.0 ESE 0.00 29.778
12/03/2004 6:00 p -- 40.1 40.1 40.6 39.7 -- -- 0.0 0.0 --- 0.00 29.798
12/03/2004 6:30 p -- 38.7 38.7 39.7 37.5 -- -- 0.0 0.0 --- 0.00 29.811
12/03/2004 7:00 p -- 38.3 38.3 39.9 37.2 -- -- 0.0 4.0 SE 0.00 29.828
12/03/2004 7:30 p -- 39.8 39.8 40.2 39.3 -- -- 1.0 6.0 SE 0.00 29.844
12/03/2004 8:00 p -- 39.1 39.1 39.4 38.4 -- -- 1.0 6.0 SE 0.00 29.858
12/03/2004 8:30 p -- 38.0 38.0 38.5 37.5 -- -- 0.0 5.0 SE 0.00 29.869
12/03/2004 9:00 p -- 37.4 37.4 37.9 37.1 -- -- 1.0 8.0 SE 0.00 29.876
12/03/2004 9:30 p -- 37.0 37.0 37.4 36.6 -- -- 1.0 8.0 SE 0.00 29.891
12/03/2004 10:00 p -- 36.3 36.3 36.8 36.0 -- -- 1.0 6.0 SE 0.00 29.901
12/03/2004 10:30 p -- 35.3 35.3 36.3 34.6 -- -- 0.0 2.0 ESE 0.00 29.905
12/03/2004 11:00 p -- 34.1 34.1 35.1 33.1 -- -- 0.0 2.0 S 0.00 29.915
12/03/2004 11:30 p -- 32.1 32.1 33.2 31.5 -- -- 0.0 0.0 --- 0.00 29.918
12/04/2004 12:00 a -- 30.9 30.9 31.8 30.0 -- -- 0.0 0.0 --- 0.00 29.927
12/04/2004 12:30 a -- 30.5 30.5 30.8 30.2 -- -- 0.0 0.0 --- 0.00 29.922
12/04/2004 1:00 a -- 30.3 30.3 30.9 29.7 -- -- 0.0 0.0 --- 0.00 29.920
12/04/2004 1:30 a -- 30.0 30.0 30.4 29.5 -- -- 0.0 2.0 S 0.00 29.929
12/04/2004 2:00 a -- 29.7 29.7 30.0 29.1 -- -- 0.0 0.0 --- 0.00 29.926
12/04/2004 2:30 a -- 29.4 29.4 30.0 28.8 -- -- 0.0 1.0 S 0.00 29.931
12/04/2004 3:00 a -- 28.7 28.7 29.1 28.2 -- -- 0.0 0.0 --- 0.00 29.930
12/04/2004 3:30 a -- 28.1 28.1 28.8 27.7 -- -- 0.0 0.0 --- 0.00 29.925
12/04/2004 4:00 a -- 27.8 27.8 28.4 27.2 -- -- 0.0 0.0 --- 0.00 29.921
12/04/2004 4:30 a -- 27.2 27.2 27.8 26.7 -- -- 0.0 0.0 --- 0.00 29.912
12/04/2004 5:00 a -- 26.5 26.5 27.0 25.9 -- -- 0.0 0.0 --- 0.00 29.921
12/04/2004 5:30 a -- 26.2 26.2 26.7 25.9 -- -- 0.0 0.0 --- 0.00 29.930
12/04/2004 6:00 a -- 25.8 25.8 26.4 25.0 -- -- 0.0 0.0 --- 0.00 29.943
12/04/2004 6:30 a -- 25.3 25.3 25.7 24.6 -- -- 0.0 0.0 --- 0.00 29.948
12/04/2004 7:00 a -- 25.1 25.1 25.5 24.7 -- -- 0.0 0.0 --- 0.00 29.952
12/04/2004 7:30 a -- 25.2 25.2 25.9 24.5 -- -- 0.0 0.0 --- 0.00 29.963
12/04/2004 8:00 a -- 26.8 26.8 28.3 25.6 -- -- 0.0 0.0 --- 0.00 29.974
12/04/2004 8:30 a -- 30.2 30.2 32.0 27.9 -- -- 0.0 0.0 --- 0.00 29.978
12/04/2004 9:00 a -- 33.2 33.2 34.5 32.0 -- -- 0.0 0.0 --- 0.00 29.981
12/04/2004 9:30 a -- 35.5 35.5 36.8 34.5 -- -- 0.0 1.0 S 0.00 29.993
12/04/2004 10:00 a -- 37.6 37.6 38.5 36.8 -- -- 0.0 3.0 S 0.00 30.003
12/04/2004 10:30 a -- 39.4 39.4 40.4 38.5 -- -- 0.0 5.0 ESE 0.00 29.997
12/04/2004 11:00 a -- 40.9 40.9 42.1 40.1 -- -- 0.0 3.0 N 0.00 29.963
12/04/2004 11:30 a -- 42.5 42.5 43.3 41.8 -- -- 0.0 4.0 SE 0.00 29.945
12/04/2004 12:00 p -- 42.9 42.9 43.4 42.2 -- -- 0.0 5.0 SE 0.00 29.923
12/04/2004 12:30 p -- 43.6 43.6 44.1 43.1 -- -- 0.0 3.0 NE 0.00 29.904
12/04/2004 1:00 p -- 43.8 43.8 44.5 42.8 -- -- 0.0 4.0 SSE 0.00 29.881
12/04/2004 1:30 p -- 44.5 44.5 45.3 44.0 -- -- 1.0 4.0 SE 0.00 29.866
12/04/2004 2:00 p -- 44.4 44.4 44.9 43.7 -- -- 1.0 4.0 N 0.00 29.877
12/04/2004 2:30 p -- 44.5 44.5 44.8 44.1 -- -- 0.0 4.0 SSE 0.00 29.868
12/04/2004 3:00 p -- 44.0 44.0 44.4 43.6 -- -- 1.0 4.0 N 0.00 29.853
12/04/2004 3:30 p -- 42.8 42.8 43.7 42.1 -- -- 1.0 3.0 N 0.00 29.856
12/04/2004 4:00 p -- 42.1 42.1 42.7 41.3 -- -- 0.0 3.0 NNE 0.00 29.845
12/04/2004 4:30 p -- 40.5 40.5 41.3 39.9 -- -- 0.0 1.0 SSW 0.00 29.840
12/04/2004 5:00 p -- 39.8 39.8 40.1 39.4 -- -- 0.0 0.0 --- 0.00 29.847
12/04/2004 5:30 p -- 40.5 40.5 40.9 40.1 -- -- 0.0 2.0 SSW 0.00 29.855
12/04/2004 6:00 p -- 41.0 41.0 41.3 40.7 -- -- 0.0 1.0 SW 0.00 29.861
12/04/2004 6:30 p -- 41.3 41.3 41.7 41.1 -- -- 0.0 2.0 NW 0.00 29.860
12/04/2004 7:00 p -- 41.4 41.4 41.7 41.2 -- -- 0.0 1.0 --- 0.00 29.856
12/04/2004 7:30 p -- 41.6 41.6 41.9 41.4 -- -- 0.0 1.0 NNW 0.00 29.857
12/04/2004 8:00 p -- 41.7 41.7 41.9 41.5 -- -- 0.0 2.0 NNW 0.00 29.842
12/04/2004 8:30 p -- 41.7 41.7 41.9 41.6 -- -- 0.0 2.0 N 0.00 29.846
12/04/2004 9:00 p -- 41.5 41.5 41.7 41.3 -- -- 0.0 2.0 N 0.00 29.838
12/04/2004 9:30 p -- 41.3 41.3 41.5 41.1 -- -- 0.0 2.0 N 0.00 29.837
12/04/2004 10:00 p -- 41.0 41.0 41.2 40.4 -- -- 0.0 0.0 --- 0.00 29.829
12/04/2004 10:30 p -- 39.5 39.5 40.4 38.7 -- -- 0.0 0.0 --- 0.00 29.834
12/04/2004 11:00 p -- 37.8 37.8 38.8 36.2 -- -- 0.0 0.0 --- 0.00 29.836
12/04/2004 11:30 p -- 35.6 35.6 36.3 35.0 -- -- 0.0 0.0 --- 0.00 29.835
12/05/2004 12:00 a -- 34.6 34.6 35.1 34.2 -- -- 0.0 0.0 --- 0.00 29.832
12/05/2004 12:30 a -- 34.8 34.8 35.2 34.3 -- -- 0.0 0.0 --- 0.00 29.832
12/05/2004 1:00 a -- 34.4 34.4 34.8 33.7 -- -- 0.0 0.0 --- 0.00 29.828
12/05/2004 1:30 a -- 34.0 34.0 34.3 33.7 -- -- 0.0 0.0 --- 0.00 29.843
12/05/2004 2:00 a -- 33.4 33.4 33.7 32.9 -- -- 0.0 0.0 --- 0.00 29.850
12/05/2004 2:30 a -- 33.1 33.1 33.4 32.6 -- -- 0.0 0.0 --- 0.00 29.852
12/05/2004 3:00 a -- 32.7 32.7 33.2 32.4 -- -- 0.0 0.0 --- 0.00 29.854
12/05/2004 3:30 a -- 32.4 32.4 32.6 32.1 -- -- 0.0 0.0 --- 0.00 29.857
12/05/2004 4:00 a -- 32.4 32.4 32.8 32.0 -- -- 0.0 0.0 --- 0.00 29.865
12/05/2004 4:30 a -- 32.3 32.3 32.7 31.9 -- -- 0.0 0.0 --- 0.00 29.867
12/05/2004 5:00 a -- 32.6 32.6 34.8 32.0 -- -- 0.0 0.0 --- 0.00 29.867
12/05/2004 5:30 a -- 34.4 34.4 34.9 33.3 -- -- 0.0 0.0 --- 0.00 29.878
12/05/2004 6:00 a -- 32.8 32.8 33.3 32.2 -- -- 0.0 0.0 --- 0.00 29.891
12/05/2004 6:30 a -- 33.0 33.0 33.5 32.4 -- -- 0.0 0.0 --- 0.00 29.896
12/05/2004 7:00 a -- 33.0 33.0 33.9 32.4 -- -- 0.0 1.0 N 0.00 29.916
12/05/2004 7:30 a -- 34.5 34.5 35.0 33.7 -- -- 0.0 0.0 --- 0.00 29.921
12/05/2004 8:00 a -- 36.4 36.4 38.5 35.1 -- -- 0.0 1.0 --- 0.00 29.930
12/05/2004 8:30 a -- 40.3 40.3 41.7 38.6 -- -- 0.0 0.0 --- 0.00 29.944
12/05/2004 9:00 a -- 42.5 42.5 43.9 41.3 -- -- 0.0 0.0 --- 0.00 29.956
12/05/2004 9:30 a -- 45.6 45.6 46.9 43.8 -- -- 0.0 0.0 --- 0.00 29.970
12/05/2004 10:00 a -- 47.5 47.5 48.5 46.8 -- -- 0.0 0.0 --- 0.00 29.978
12/05/2004 10:30 a -- 49.7 49.7 50.8 48.5 -- -- 0.0 3.0 SE 0.00 29.972
12/05/2004 11:00 a -- 52.6 52.6 54.4 50.6 -- -- 0.0 2.0 N 0.00 29.969
12/05/2004 11:30 a -- 54.5 54.5 55.4 53.7 -- -- 0.0 5.0 SE 0.00 29.961
12/05/2004 12:00 p -- 54.8 54.8 55.6 54.2 -- -- 1.0 7.0 SE 0.00 29.960
12/05/2004 12:30 p -- 55.0 55.0 55.5 54.3 -- -- 1.0 7.0 SE 0.00 29.959
12/05/2004 1:00 p -- 54.4 54.4 54.9 53.9 -- -- 2.0 7.0 SE 0.00 29.958
12/05/2004 1:30 p -- 54.9 54.9 55.4 54.4 -- -- 1.0 6.0 SE 0.00 29.962
12/05/2004 2:00 p -- 54.9 54.9 55.4 54.6 -- -- 1.0 6.0 SE 0.00 29.977
12/05/2004 2:30 p -- 54.8 54.8 55.1 54.3 -- -- 1.0 7.0 SE 0.00 29.980
12/05/2004 3:00 p -- 54.6 54.6 55.0 54.4 -- -- 0.0 3.0 SE 0.00 29.987
12/05/2004 3:30 p -- 54.0 54.0 54.6 53.0 -- -- 0.0 4.0 SE 0.00 30.004
12/05/2004 4:00 p -- 53.0 53.0 53.4 52.3 -- -- 1.0 6.0 SE 0.00 30.013
12/05/2004 4:30 p -- 51.1 51.1 52.5 49.9 -- -- 0.0 2.0 ESE 0.00 30.027
12/05/2004 5:00 p -- 47.9 47.9 50.0 46.6 -- -- 0.0 0.0 --- 0.00 30.043
12/05/2004 5:30 p -- 45.8 45.8 47.2 44.7 -- -- 0.0 0.0 --- 0.00 30.065
12/05/2004 6:00 p -- 45.1 45.1 46.2 44.0 -- -- 0.0 0.0 --- 0.00 30.079
12/05/2004 6:30 p -- 45.5 45.5 47.0 42.7 -- -- 0.0 2.0 SE 0.00 30.098
12/05/2004 7:00 p -- 44.2 44.2 45.8 43.3 -- -- 0.0 0.0 --- 0.00 30.108
12/05/2004 7:30 p -- 44.8 44.8 45.5 44.0 -- -- 0.0 1.0 S 0.00 30.117
12/05/2004 8:00 p -- 43.9 43.9 45.1 42.7 -- -- 0.0 1.0 --- 0.00 30.134
12/05/2004 8:30 p -- 42.4 42.4 43.8 41.0 -- -- 0.0 0.0 --- 0.00 30.149
12/05/2004 9:00 p -- 42.1 42.1 43.5 41.3 -- -- 0.0 0.0 --- 0.00 30.153
12/05/2004 9:30 p -- 41.3 41.3 42.2 40.6 -- -- 0.0 0.0 --- 0.00 30.163
12/05/2004 10:00 p -- 40.2 40.2 40.7 39.8 -- -- 0.0 0.0 --- 0.00 30.164
12/05/2004 10:30 p -- 39.5 39.5 40.1 39.1 -- -- 0.0 0.0 --- 0.00 30.170
12/05/2004 11:00 p -- 38.8 38.8 39.5 37.8 -- -- 0.0 0.0 --- 0.00 30.187
12/05/2004 11:30 p -- 37.2 37.2 38.5 36.3 -- -- 0.0 0.0 --- 0.00 30.197
12/06/2004 12:00 a -- 36.0 36.0 36.4 35.7 -- -- 0.0 0.0 --- 0.00 30.193
12/06/2004 12:30 a -- 36.0 36.0 36.6 35.7 -- -- 0.0 0.0 --- 0.00 30.197
12/06/2004 1:00 a -- 36.1 36.1 37.1 35.0 -- -- 0.0 0.0 --- 0.00 30.198
12/06/2004 1:30 a -- 36.8 36.8 37.5 36.1 -- -- 0.0 0.0 --- 0.00 30.205
12/06/2004 2:00 a -- 37.5 37.5 37.7 37.1 -- -- 0.0 0.0 --- 0.00 30.211
12/06/2004 2:30 a -- 37.1 37.1 37.5 36.8 -- -- 0.0 0.0 --- 0.00 30.216
12/06/2004 3:00 a -- 37.2 37.2 37.3 37.0 -- -- 0.0 0.0 --- 0.00 30.218
12/06/2004 3:30 a -- 36.6 36.6 37.0 36.1 -- -- 0.0 0.0 --- 0.00 30.222
12/06/2004 4:00 a -- 35.6 35.6 36.1 35.3 -- -- 0.0 0.0 --- 0.00 30.217
12/06/2004 4:30 a -- 35.1 35.1 35.4 34.8 -- -- 0.0 0.0 --- 0.00 30.219
12/06/2004 5:00 a -- 35.1 35.1 35.3 34.9 -- -- 0.0 0.0 --- 0.00 30.222
12/06/2004 5:30 a -- 34.9 34.9 35.2 34.7 -- -- 0.0 0.0 --- 0.00 30.206
12/06/2004 6:00 a -- 35.1 35.1 35.3 34.7 -- -- 0.0 0.0 --- 0.00 30.212
12/06/2004 6:30 a -- 34.6 34.6 34.8 34.4 -- -- 0.0 0.0 --- 0.00 30.223
12/06/2004 7:00 a -- 34.3 34.3 34.8 33.7 -- -- 0.0 0.0 --- 0.00 30.220
12/06/2004 7:30 a -- 34.3 34.3 35.5 33.6 -- -- 0.0 0.0 --- 0.00 30.215
12/06/2004 8:00 a -- 36.3 36.3 36.7 35.6 -- -- 0.0 0.0 --- 0.00 30.204
12/06/2004 8:30 a -- 37.4 37.4 37.9 36.6 -- -- 0.0 0.0 --- 0.00 30.195
12/06/2004 9:00 a -- 38.2 38.2 39.2 37.6 -- -- 0.0 1.0 --- 0.00 30.207
12/06/2004 9:30 a -- 40.0 40.0 40.8 39.3 -- -- 0.0 3.0 SW 0.00 30.205
12/06/2004 10:00 a -- 41.0 41.0 41.3 40.2 -- -- 0.0 2.0 WSW 0.00 30.191
12/06/2004 10:30 a -- 41.8 41.8 42.6 41.1 -- -- 0.0 2.0 WNW 0.00 30.179
12/06/2004 11:00 a -- 41.6 41.6 42.3 40.8 -- -- 0.0 3.0 WNW 0.00 30.148
12/06/2004 11:30 a -- 40.3 40.3 40.9 39.8 -- -- 0.0 2.0 WNW 0.01 30.133
12/06/2004 12:00 p -- 39.0 39.0 39.9 38.4 -- -- 0.0 3.0 WNW 0.02 30.126
12/06/2004 12:30 p -- 38.3 38.3 38.7 38.0 -- -- 0.0 3.0 W 0.01 30.110
12/06/2004 1:00 p -- 38.5 38.5 39.1 38.2 -- -- 0.0 3.0 WSW 0.01 30.121
12/06/2004 1:30 p -- 38.8 38.8 39.1 38.4 -- -- 1.0 3.0 WNW 0.02 30.091
12/06/2004 2:00 p -- 38.0 38.0 38.4 37.7 -- -- 1.0 4.0 WNW 0.01 30.061
12/06/2004 2:30 p -- 37.9 37.9 38.2 37.7 -- -- 1.0 4.0 WNW 0.00 30.059
12/06/2004 3:00 p -- 38.2 38.2 38.6 37.9 -- -- 1.0 4.0 WNW 0.00 30.065
12/06/2004 3:30 p -- 38.4 38.4 38.6 38.2 -- -- 0.0 4.0 WNW 0.00 30.076
12/06/2004 4:00 p -- 38.3 38.3 38.5 38.0 -- -- 1.0 4.0 WNW 0.00 30.075
12/06/2004 4:30 p -- 38.5 38.5 39.2 37.7 -- -- 1.0 4.0 SE 0.01 30.060
12/06/2004 5:00 p -- 37.8 37.8 37.9 37.6 -- -- 1.0 4.0 WNW 0.00 30.060
12/06/2004 5:30 p -- 38.0 38.0 38.3 37.9 -- -- 1.0 4.0 W 0.00 30.060
12/06/2004 6:00 p -- 38.6 38.6 39.2 38.1 -- -- 0.0 2.0 SSW 0.00 30.054
12/06/2004 6:30 p -- 39.4 39.4 39.6 39.1 -- -- 0.0 3.0 SSW 0.00 30.058
12/06/2004 7:00 p -- 39.2 39.2 39.4 39.1 -- -- 0.0 2.0 SSW 0.00 30.066
12/06/2004 7:30 p -- 38.9 38.9 39.1 38.8 -- -- 0.0 3.0 WSW 0.00 30.062
12/06/2004 8:00 p -- 38.5 38.5 38.9 38.1 -- -- 1.0 4.0 WSW 0.00 30.059
12/06/2004 8:30 p -- 37.9 37.9 38.2 37.6 -- -- 1.0 5.0 WNW 0.00 30.069
12/06/2004 9:00 p -- 37.4 37.4 37.9 37.0 -- -- 1.0 3.0 SSW 0.00 30.068
12/06/2004 9:30 p -- 37.0 37.0 37.2 36.9 -- -- 1.0 3.0 WNW 0.00 30.062
12/06/2004 10:00 p -- 37.0 37.0 37.3 36.7 -- -- 1.0 3.0 SW 0.00 30.067
12/06/2004 10:30 p -- 36.7 36.7 36.9 36.5 -- -- 1.0 4.0 SSW 0.00 30.064
12/06/2004 11:00 p -- 36.6 36.6 36.9 36.4 -- -- 0.0 3.0 SSW 0.00 30.068
12/06/2004 11:30 p -- 36.4 36.4 36.6 36.2 -- -- 1.0 4.0 W 0.00 30.064
12/07/2004 12:00 a -- 36.3 36.3 36.6 35.9 -- -- 1.0 3.0 WSW 0.00 30.064
12/07/2004 12:30 a -- 36.1 36.1 36.3 35.9 -- -- 0.0 3.0 W 0.00 30.046
12/07/2004 1:00 a -- 36.1 36.1 36.2 35.9 -- -- 1.0 3.0 WSW 0.00 30.047
12/07/2004 1:30 a -- 36.3 36.3 36.6 36.1 -- -- 0.0 3.0 WNW 0.00 30.039
12/07/2004 2:00 a -- 36.4 36.4 36.6 36.2 -- -- 0.0 3.0 WSW 0.00 30.038
12/07/2004 2:30 a -- 36.5 36.5 36.7 36.4 -- -- 0.0 2.0 WSW 0.00 30.042
12/07/2004 3:00 a -- 36.6 36.6 36.9 36.4 -- -- 0.0 3.0 SW 0.00 30.037
12/07/2004 3:30 a -- 36.8 36.8 37.0 36.6 -- -- 0.0 3.0 SSW 0.00 30.026
12/07/2004 4:00 a -- 36.7 36.7 37.1 36.5 -- -- 1.0 3.0 WSW 0.00 30.009
12/07/2004 4:30 a -- 36.8 36.8 37.0 36.7 -- -- 0.0 3.0 WNW 0.00 29.999
12/07/2004 5:00 a -- 37.0 37.0 37.5 36.7 -- -- 0.0 4.0 W 0.00 29.991
12/07/2004 5:30 a -- 37.1 37.1 37.4 36.9 -- -- 1.0 3.0 WNW 0.01 29.997
12/07/2004 6:00 a -- 37.2 37.2 37.7 37.0 -- -- 0.0 3.0 W 0.02 29.986
12/07/2004 6:30 a -- 37.3 37.3 37.7 37.0 -- -- 1.0 4.0 W 0.01 29.984
12/07/2004 7:00 a -- 37.4 37.4 37.7 37.1 -- -- 0.0 3.0 WSW 0.01 29.979
12/07/2004 7:30 a -- 37.8 37.8 38.1 37.5 -- -- 0.0 2.0 WSW 0.01 29.978
12/07/2004 8:00 a -- 38.1 38.1 38.3 37.8 -- -- 0.0 3.0 W 0.00 29.972
12/07/2004 8:30 a -- 38.2 38.2 38.4 38.1 -- -- 0.0 3.0 W 0.00 29.963
12/07/2004 9:00 a -- 38.6 38.6 38.8 38.3 -- -- 1.0 3.0 W 0.00 29.959
12/07/2004 9:30 a -- 39.1 39.1 39.6 38.7 -- -- 0.0 3.0 W 0.01 29.955
12/07/2004 10:00 a -- 39.9 39.9 40.3 39.5 -- -- 0.0 3.0 WNW 0.03 29.963
12/07/2004 10:30 a -- 40.4 40.4 40.7 39.9 -- -- 0.0 2.0 WNW 0.04 29.944
12/07/2004 11:00 a -- 40.7 40.7 41.3 40.3 -- -- 1.0 3.0 WNW 0.02 29.905
12/07/2004 11:30 a -- 41.4 41.4 41.7 41.1 -- -- 0.0 3.0 WNW 0.04 29.871
12/07/2004 12:00 p -- 41.9 41.9 42.5 41.5 -- -- 0.0 3.0 WNW 0.09 29.858
12/07/2004 12:30 p -- 42.6 42.6 42.8 42.4 -- -- 0.0 3.0 WNW 0.09 29.846
12/07/2004 1:00 p -- 42.7 42.7 42.8 42.5 -- -- 0.0 3.0 WNW 0.02 29.820
12/07/2004 1:30 p -- 42.8 42.8 43.1 42.6 -- -- 0.0 2.0 WNW 0.01 29.805
12/07/2004 2:00 p -- 42.8 42.8 43.1 42.7 -- -- 0.0 2.0 WNW 0.02 29.786
12/07/2004 2:30 p -- 43.2 43.2 43.6 42.8 -- -- 1.0 4.0 WNW 0.02 29.745
12/07/2004 3:00 p -- 43.6 43.6 43.8 43.3 -- -- 0.0 2.0 WSW 0.00 29.723
12/07/2004 3:30 p -- 44.0 44.0 44.2 43.7 -- -- 1.0 2.0 WSW 0.00 29.688
12/07/2004 4:00 p -- 44.5 44.5 45.1 44.1 -- -- 0.0 3.0 W 0.00 29.681
12/07/2004 4:30 p -- 45.0 45.0 45.5 44.6 -- -- 1.0 4.0 W 0.01 29.656
12/07/2004 5:00 p -- 45.5 45.5 46.0 45.1 -- -- 0.0 2.0 WNW 0.00 29.644
12/07/2004 5:30 p -- 46.2 46.2 46.4 45.8 -- -- 0.0 2.0 WNW 0.01 29.626
12/07/2004 6:00 p -- 46.7 46.7 46.9 46.2 -- -- 0.0 2.0 WNW 0.01 29.622
12/07/2004 6:30 p -- 47.1 47.1 47.5 46.8 -- -- 0.0 2.0 WNW 0.02 29.605
12/07/2004 7:00 p -- 47.6 47.6 48.0 47.3 -- -- 0.0 1.0 WNW 0.01 29.594
12/07/2004 7:30 p -- 47.8 47.8 48.1 47.4 -- -- 0.0 2.0 WNW 0.01 29.587
12/07/2004 8:00 p -- 48.0 48.0 48.5 47.8 -- -- 0.0 0.0 --- 0.00 29.570
12/07/2004 8:30 p -- 48.4 48.4 49.5 47.8 -- -- 0.0 1.0 WNW 0.00 29.565
12/07/2004 9:00 p -- 48.1 48.1 48.8 47.6 -- -- 0.0 2.0 WNW 0.00 29.549
12/07/2004 9:30 p -- 47.7 47.7 48.5 47.1 -- -- 0.0 3.0 ESE 0.00 29.549
12/07/2004 10:00 p -- 47.4 47.4 47.7 47.3 -- -- 0.0 2.0 ESE 0.00 29.534
12/07/2004 10:30 p -- 47.4 47.4 47.7 47.2 -- -- 0.0 2.0 ESE 0.00 29.535
12/07/2004 11:00 p -- 47.5 47.5 47.8 47.1 -- -- 0.0 3.0 ESE 0.00 29.539
12/07/2004 11:30 p -- 47.6 47.6 47.7 47.3 -- -- 0.0 1.0 ESE 0.00 29.533
12/08/2004 12:00 a -- 47.4 47.4 47.9 47.0 -- -- 0.0 0.0 --- 0.01 29.523
12/08/2004 12:30 a -- 47.7 47.7 47.9 47.5 -- -- 0.0 3.0 ESE 0.00 29.547
12/08/2004 1:00 a -- 47.8 47.8 48.2 47.4 -- -- 0.0 2.0 SSE 0.01 29.560
12/08/2004 1:30 a -- 47.7 47.7 48.1 47.3 -- -- 0.0 0.0 --- 0.03 29.569
12/08/2004 2:00 a -- 47.8 47.8 48.2 47.5 -- -- 0.0 2.0 SSE 0.00 29.576
12/08/2004 2:30 a -- 47.8 47.8 48.0 47.6 -- -- 0.0 0.0 --- 0.00 29.592
12/08/2004 3:00 a -- 47.4 47.4 47.8 47.2 -- -- 0.0 0.0 --- 0.00 29.592
12/08/2004 3:30 a -- 46.4 46.4 47.4 45.6 -- -- 0.0 0.0 --- 0.00 29.597
12/08/2004 4:00 a -- 46.1 46.1 46.6 45.3 -- -- 0.0 0.0 --- 0.00 29.615
12/08/2004 4:30 a -- 45.7 45.7 46.7 44.9 -- -- 0.0 1.0 --- 0.00 29.627
12/08/2004 5:00 a -- 47.7 47.7 48.3 46.7 -- -- 0.0 2.0 SE 0.00 29.640
12/08/2004 5:30 a -- 47.4 47.4 47.9 46.9 -- -- 0.0 2.0 N 0.00 29.649
12/08/2004 6:00 a -- 47.3 47.3 48.4 46.9 -- -- 0.0 1.0 WSW 0.00 29.669
12/08/2004 6:30 a -- 47.4 47.4 48.2 46.7 -- -- 0.0 3.0 SSE 0.00 29.682
12/08/2004 7:00 a -- 46.7 46.7 47.2 46.2 -- -- 0.0 2.0 SSE 0.00 29.702
12/08/2004 7:30 a -- 47.0 47.0 48.1 46.5 -- -- 0.0 3.0 SSE 0.00 29.717
12/08/2004 8:00 a -- 48.5 48.5 49.5 47.3 -- -- 0.0 3.0 SSE 0.00 29.736
12/08/2004 8:30 a -- 50.7 50.7 52.0 49.5 -- -- 0.0 3.0 NNW 0.00 29.741
12/08/2004 9:00 a -- 52.4 52.4 53.4 51.7 -- -- 0.0 4.0 ESE 0.00 29.758
12/08/2004 9:30 a -- 54.1 54.1 55.0 53.3 -- -- 0.0 4.0 SSW 0.00 29.779
12/08/2004 10:00 a -- 55.9 55.9 56.8 55.1 -- -- 1.0 5.0 SE 0.00 29.792
12/08/2004 10:30 a -- 57.2 57.2 57.8 56.7 -- -- 1.0 10.0 SE 0.00 29.792
12/08/2004 11:00 a -- 58.6 58.6 60.3 57.4 -- -- 3.0 9.0 SE 0.00 29.788
12/08/2004 11:30 a -- 60.3 60.3 61.2 59.5 -- -- 2.0 9.0 SE 0.00 29.800
12/08/2004 12:00 p -- 59.0 59.0 61.2 57.6 -- -- 2.0 8.0 SE 0.00 29.803
12/08/2004 12:30 p -- 59.4 59.4 61.3 58.0 -- -- 1.0 9.0 SE 0.00 29.811
12/08/2004 1:00 p -- 58.1 58.1 59.4 57.3 -- -- 3.0 15.0 SE 0.00 29.813
12/08/2004 1:30 p -- 57.6 57.6 58.3 56.9 -- -- 2.0 8.0 SE 0.00 29.822
12/08/2004 2:00 p -- 58.1 58.1 58.7 57.3 -- -- 2.0 7.0 SE 0.00 29.830
12/08/2004 2:30 p -- 58.2 58.2 58.5 57.9 -- -- 2.0 9.0 SE 0.00 29.838
12/08/2004 3:00 p -- 58.2 58.2 58.7 57.8 -- -- 3.0 16.0 SE 0.01 29.846
12/08/2004 3:30 p -- 58.2 58.2 59.0 57.3 -- -- 2.0 10.0 SE 0.00 29.874
12/08/2004 4:00 p -- 56.0 56.0 57.3 54.8 -- -- 2.0 10.0 SE 0.00 29.891
12/08/2004 4:30 p -- 54.0 54.0 55.1 52.6 -- -- 1.0 5.0 ESE 0.00 29.908
12/08/2004 5:00 p -- 52.6 52.6 53.1 51.9 -- -- 0.0 4.0 SE 0.00 29.940
12/08/2004 5:30 p -- 52.4 52.4 52.8 51.8 -- -- 2.0 8.0 SSE 0.00 29.965
12/08/2004 6:00 p -- 51.5 51.5 51.8 51.0 -- -- 1.0 6.0 SE 0.00 29.977
12/08/2004 6:30 p -- 50.6 50.6 51.2 49.8 -- -- 1.0 8.0 SE 0.00 29.987
12/08/2004 7:00 p -- 49.6 49.6 50.2 48.6 -- -- 1.0 5.0 SE 0.00 29.994
12/08/2004 7:30 p -- 48.7 48.7 49.3 47.7 -- -- 0.0 5.0 SE 0.00 30.017
12/08/2004 8:00 p -- 48.2 48.2 48.9 47.4 -- -- 1.0 5.0 ESE 0.00 30.023
12/08/2004 8:30 p -- 48.7 48.7 49.1 48.0 -- -- 1.0 8.0 SE 0.00 30.029
12/08/2004 9:00 p -- 48.0 48.0 49.5 47.4 -- -- 1.0 4.0 SE 0.00 30.036
12/08/2004 9:30 p -- 47.4 47.4 48.1 46.9 -- -- 1.0 5.0 SE 0.00 30.034
12/08/2004 10:00 p -- 47.2 47.2 47.5 46.7 -- -- 1.0 7.0 SE 0.00 30.027
12/08/2004 10:30 p -- 46.7 46.7 47.4 46.1 -- -- 1.0 6.0 SSE 0.00 30.035
12/08/2004 11:00 p -- 46.0 46.0 46.8 45.5 -- -- 1.0 5.0 SE 0.00 30.048
12/08/2004 11:30 p -- 44.4 44.4 45.7 42.8 -- -- 0.0 1.0 S 0.00 30.044
12/09/2004 12:00 a -- 42.3 42.3 43.2 41.5 -- -- 0.0 0.0 --- 0.00 30.030
12/09/2004 12:30 a -- 42.0 42.0 42.5 41.7 -- -- 0.0 0.0 --- 0.00 30.043
12/09/2004 1:00 a -- 42.2 42.2 43.0 41.7 -- -- 0.0 2.0 S 0.00 30.051
12/09/2004 1:30 a -- 41.3 41.3 42.7 39.9 -- -- 0.0 0.0 --- 0.00 30.062
12/09/2004 2:00 a -- 39.4 39.4 40.1 38.9 -- -- 0.0 0.0 --- 0.00 30.079
12/09/2004 2:30 a -- 38.5 38.5 39.1 37.9 -- -- 0.0 0.0 --- 0.00 30.081
12/09/2004 3:00 a -- 37.4 37.4 38.3 36.7 -- -- 0.0 0.0 --- 0.00 30.079
12/09/2004 3:30 a -- 36.5 36.5 36.9 36.1 -- -- 0.0 0.0 --- 0.00 30.057
12/09/2004 4:00 a -- 36.2 36.2 37.1 35.4 -- -- 0.0 0.0 --- 0.00 30.071
12/09/2004 4:30 a -- 35.4 35.4 36.0 34.6 -- -- 0.0 0.0 --- 0.00 30.053
12/09/2004 5:00 a -- 35.4 35.4 36.0 34.9 -- -- 0.0 0.0 --- 0.00 30.047
12/09/2004 5:30 a -- 35.3 35.3 35.8 34.8 -- -- 0.0 0.0 --- 0.00 30.052
12/09/2004 6:00 a -- 35.0 35.0 35.4 34.7 -- -- 0.0 0.0 --- 0.00 30.059
12/09/2004 6:30 a -- 35.7 35.7 35.9 35.0 -- -- 0.0 1.0 S 0.00 30.053
12/09/2004 7:00 a -- 35.8 35.8 36.1 35.3 -- -- 0.0 0.0 --- 0.00 30.051
12/09/2004 7:30 a -- 36.1 36.1 36.9 35.7 -- -- 0.0 0.0 --- 0.00 30.060
12/09/2004 8:00 a -- 36.7 36.7 37.6 35.9 -- -- 0.0 0.0 --- 0.00 30.051
12/09/2004 8:30 a -- 38.7 38.7 39.6 37.7 -- -- 0.0 0.0 --- 0.00 30.070
12/09/2004 9:00 a -- 40.4 40.4 41.8 39.0 -- -- 0.0 0.0 --- 0.00 30.075
12/09/2004 9:30 a -- 42.6 42.6 45.0 40.8 -- -- 0.0 0.0 --- 0.00 30.076
12/09/2004 10:00 a -- 46.4 46.4 48.6 44.8 -- -- 0.0 0.0 --- 0.00 30.081
12/09/2004 10:30 a -- 48.4 48.4 49.8 47.5 -- -- 0.0 0.0 --- 0.00 30.089
12/09/2004 11:00 a -- 49.4 49.4 50.4 48.6 -- -- 0.0 0.0 --- 0.00 30.056
12/09/2004 11:30 a -- 49.4 49.4 50.1 48.6 -- -- 0.0 2.0 --- 0.00 30.052
12/09/2004 12:00 p -- 49.8 49.8 50.4 49.3 -- -- 0.0 3.0 N 0.00 30.029
12/09/2004 12:30 p -- 49.6 49.6 50.5 49.0 -- -- 0.0 4.0 N 0.00 30.019
12/09/2004 1:00 p -- 50.0 50.0 50.6 49.3 -- -- 0.0 2.0 WNW 0.00 29.989
12/09/2004 1:30 p -- 50.2 50.2 50.8 49.7 -- -- 1.0 4.0 N 0.00 30.001
12/09/2004 2:00 p -- 49.4 49.4 50.0 48.4 -- -- 1.0 5.0 N 0.00 29.959
12/09/2004 2:30 p -- 48.3 48.3 48.5 48.1 -- -- 1.0 5.0 NNW 0.00 29.998
12/09/2004 3:00 p -- 47.4 47.4 48.3 46.3 -- -- 0.0 3.0 N 0.01 29.996
12/09/2004 3:30 p -- 46.7 46.7 47.0 46.3 -- -- 0.0 2.0 N 0.02 29.996
12/09/2004 4:00 p -- 46.5 46.5 46.7 45.9 -- -- 0.0 1.0 N 0.01 29.978
12/09/2004 4:30 p -- 45.9 45.9 46.2 45.6 -- -- 0.0 2.0 N 0.01 29.954
12/09/2004 5:00 p -- 45.3 45.3 45.7 45.2 -- -- 1.0 3.0 WNW 0.01 29.933
12/09/2004 5:30 p -- 45.2 45.2 45.4 45.1 -- -- 0.0 3.0 NW 0.00 29.922
12/09/2004 6:00 p -- 45.0 45.0 45.3 44.7 -- -- 1.0 3.0 NW 0.01 29.913
12/09/2004 6:30 p -- 44.9 44.9 45.2 44.6 -- -- 0.0 2.0 WNW 0.01 29.900
12/09/2004 7:00 p -- 44.6 44.6 45.0 44.4 -- -- 0.0 2.0 WNW 0.01 29.883
12/09/2004 7:30 p -- 44.6 44.6 44.9 44.4 -- -- 0.0 3.0 WNW 0.02 29.856
12/09/2004 8:00 p -- 45.0 45.0 45.5 44.7 -- -- 1.0 4.0 WNW 0.01 29.833
12/09/2004 8:30 p -- 45.9 45.9 46.3 45.5 -- -- 1.0 7.0 N 0.02 29.814
12/09/2004 9:00 p -- 46.3 46.3 46.5 46.1 -- -- 1.0 4.0 W 0.02 29.825
12/09/2004 9:30 p -- 46.5 46.5 46.8 46.3 -- -- 1.0 4.0 N 0.03 29.809
12/09/2004 10:00 p -- 46.5 46.5 46.7 46.4 -- -- 0.0 3.0 NW 0.02 29.806
12/09/2004 10:30 p -- 46.9 46.9 47.6 46.6 -- -- 0.0 2.0 NW 0.06 29.813
12/09/2004 11:00 p -- 47.0 47.0 47.6 46.5 -- -- 1.0 4.0 WNW 0.04 29.795
12/09/2004 11:30 p -- 47.3 47.3 47.6 46.8 -- -- 1.0 3.0 NW 0.04 29.797
12/10/2004 12:00 a -- 46.8 46.8 47.3 46.1 -- -- 1.0 3.0 NW 0.04 29.773
12/10/2004 12:30 a -- 45.9 45.9 46.2 45.6 -- -- 0.0 3.0 WNW 0.03 29.766
12/10/2004 1:00 a -- 45.5 45.5 45.8 45.4 -- -- 0.0 2.0 WNW 0.03 29.752
12/10/2004 1:30 a -- 46.0 46.0 46.3 45.7 -- -- 0.0 3.0 WNW 0.01 29.746
12/10/2004 2:00 a -- 46.5 46.5 46.9 46.0 -- -- 0.0 2.0 WNW 0.01 29.734
12/10/2004 2:30 a -- 46.8 46.8 46.9 46.5 -- -- 1.0 4.0 WNW 0.01 29.709
12/10/2004 3:00 a -- 46.9 46.9 47.0 46.7 -- -- 1.0 4.0 NW 0.00 29.699
12/10/2004 3:30 a -- 46.7 46.7 46.9 46.6 -- -- 1.0 3.0 WNW 0.00 29.688
12/10/2004 4:00 a -- 46.7 46.7 46.8 46.6 -- -- 1.0 7.0 WNW 0.00 29.685
12/10/2004 4:30 a -- 46.7 46.7 46.9 46.5 -- -- 1.0 4.0 NW 0.01 29.695
12/10/2004 5:00 a -- 46.5 46.5 46.7 46.4 -- -- 1.0 3.0 WNW 0.00 29.679
12/10/2004 5:30 a -- 46.6 46.6 46.7 46.4 -- -- 1.0 4.0 WNW 0.00 29.675
12/10/2004 6:00 a -- 46.6 46.6 46.7 46.4 -- -- 1.0 4.0 NW 0.00 29.663
12/10/2004 6:30 a -- 46.5 46.5 46.7 46.4 -- -- 1.0 3.0 WNW 0.00 29.671
12/10/2004 7:00 a -- 46.4 46.4 46.5 46.3 -- -- 1.0 4.0 WNW 0.00 29.670
12/10/2004 7:30 a -- 46.3 46.3 46.4 46.2 -- -- 1.0 4.0 WNW 0.00 29.639
12/10/2004 8:00 a -- 46.4 46.4 46.5 46.3 -- -- 1.0 5.0 WNW 0.00 29.633
12/10/2004 8:30 a -- 46.4 46.4 46.5 46.3 -- -- 1.0 4.0 WNW 0.00 29.626
12/10/2004 9:00 a -- 46.5 46.5 46.7 46.3 -- -- 1.0 4.0 WNW 0.00 29.634
12/10/2004 9:30 a -- 46.7 46.7 46.8 46.6 -- -- 1.0 4.0 WNW 0.00 29.644
12/10/2004 10:00 a -- 46.8 46.8 46.9 46.7 -- -- 1.0 4.0 WNW 0.01 29.628
12/10/2004 10:30 a -- 47.0 47.0 47.1 46.8 -- -- 1.0 4.0 WNW 0.00 29.608
12/10/2004 11:00 a -- 47.1 47.1 47.3 46.9 -- -- 1.0 4.0 WNW 0.00 29.582
12/10/2004 11:30 a -- 47.2 47.2 47.4 47.1 -- -- 1.0 5.0 NW 0.01 29.558
12/10/2004 12:00 p -- 47.2 47.2 47.5 47.0 -- -- 1.0 4.0 W 0.01 29.544
12/10/2004 12:30 p -- 46.9 46.9 47.2 46.7 -- -- 1.0 4.0 WNW 0.01 29.532
12/10/2004 1:00 p -- 46.9 46.9 47.0 46.7 -- -- 1.0 4.0 WNW 0.00 29.516
12/10/2004 1:30 p -- 46.7 46.7 47.0 46.6 -- -- 1.0 4.0 WNW 0.00 29.503
12/10/2004 2:00 p -- 46.9 46.9 47.1 46.6 -- -- 1.0 4.0 WNW 0.01 29.489
12/10/2004 2:30 p -- 46.7 46.7 46.9 46.6 -- -- 1.0 5.0 WNW 0.00 29.449
12/10/2004 3:00 p -- 46.8 46.8 46.9 46.7 -- -- 1.0 4.0 WNW 0.00 29.434
12/10/2004 3:30 p -- 46.6 46.6 46.8 46.5 -- -- 1.0 4.0 WNW 0.01 29.428
12/10/2004 4:00 p -- 46.5 46.5 46.7 46.3 -- -- 1.0 4.0 WNW 0.00 29.406
12/10/2004 4:30 p -- 46.4 46.4 46.5 46.3 -- -- 1.0 4.0 WNW 0.01 29.402
12/10/2004 5:00 p -- 46.5 46.5 46.7 46.4 -- -- 1.0 4.0 W 0.01 29.392
12/10/2004 5:30 p -- 46.6 46.6 46.7 46.5 -- -- 2.0 4.0 WNW 0.03 29.388
12/10/2004 6:00 p -- 46.8 46.8 47.3 46.5 -- -- 1.0 5.0 W 0.02 29.372
12/10/2004 6:30 p -- 47.2 47.2 48.1 46.6 -- -- 1.0 5.0 WNW 0.00 29.370
12/10/2004 7:00 p -- 47.5 47.5 48.0 47.2 -- -- 0.0 3.0 NW 0.01 29.367
12/10/2004 7:30 p -- 47.4 47.4 48.2 47.1 -- -- 0.0 3.0 WNW 0.00 29.363
12/10/2004 8:00 p -- 47.4 47.4 47.6 47.2 -- -- 0.0 2.0 WNW 0.01 29.343
12/10/2004 8:30 p -- 47.2 47.2 47.5 47.1 -- -- 1.0 3.0 WNW 0.00 29.321
12/10/2004 9:00 p -- 47.3 47.3 47.5 47.1 -- -- 1.0 3.0 WNW 0.00 29.311
12/10/2004 9:30 p -- 47.6 47.6 47.8 47.4 -- -- 0.0 3.0 SW 0.00 29.287
12/10/2004 10:00 p -- 47.8 47.8 48.4 47.6 -- -- 0.0 3.0 W 0.00 29.283
12/10/2004 10:30 p -- 48.3 48.3 49.0 47.8 -- -- 0.0 2.0 W 0.00 29.280
12/10/2004 11:00 p -- 48.4 48.4 48.9 47.9 -- -- 0.0 2.0 W 0.00 29.272
12/10/2004 11:30 p -- 47.7 47.7 48.3 47.6 -- -- 0.0 3.0 WSW 0.00 29.261
12/11/2004 12:00 a -- 47.9 47.9 48.3 47.5 -- -- 0.0 3.0 SW 0.00 29.268
12/11/2004 12:30 a -- 47.6 47.6 48.2 47.3 -- -- 0.0 2.0 SSW 0.00 29.246
12/11/2004 1:00 a -- 47.6 47.6 47.8 47.3 -- -- 0.0 1.0 SSW 0.00 29.239
12/11/2004 1:30 a -- 47.8 47.8 48.5 47.4 -- -- 0.0 2.0 SSW 0.00 29.252
12/11/2004 2:00 a -- 48.4 48.4 48.7 48.1 -- -- 0.0 2.0 SSW 0.00 29.262
12/11/2004 2:30 a -- 48.3 48.3 48.5 47.9 -- -- 0.0 1.0 SSW 0.00 29.262
12/11/2004 3:00 a -- 48.4 48.4 48.9 48.0 -- -- 0.0 0.0 --- 0.01 29.261
12/11/2004 3:30 a -- 48.5 48.5 48.9 48.2 -- -- 0.0 0.0 --- 0.00 29.260
12/11/2004 4:00 a -- 48.4 48.4 48.8 48.2 -- -- 0.0 1.0 --- 0.00 29.265
12/11/2004 4:30 a -- 48.4 48.4 48.7 48.0 -- -- 0.0 0.0 --- 0.00 29.268
12/11/2004 5:00 a -- 48.2 48.2 48.4 47.9 -- -- 0.0 1.0 --- 0.00 29.267
12/11/2004 5:30 a -- 48.3 48.3 48.5 48.1 -- -- 0.0 0.0 --- 0.00 29.267
12/11/2004 6:00 a -- 48.4 48.4 48.6 48.1 -- -- 0.0 2.0 S 0.00 29.273
12/11/2004 6:30 a -- 48.3 48.3 48.5 48.0 -- -- 0.0 1.0 --- 0.00 29.272
12/11/2004 7:00 a -- 48.1 48.1 48.3 47.9 -- -- 0.0 0.0 --- 0.00 29.276
12/11/2004 7:30 a -- 48.2 48.2 48.5 47.9 -- -- 0.0 1.0 --- 0.00 29.264
12/11/2004 8:00 a -- 48.5 48.5 49.1 47.9 -- -- 0.0 0.0 --- 0.00 29.270
12/11/2004 8:30 a -- 49.1 49.1 49.8 48.6 -- -- 0.0 0.0 --- 0.00 29.271
12/11/2004 9:00 a -- 49.8 49.8 50.5 49.0 -- -- 0.0 0.0 --- 0.00 29.283
12/11/2004 9:30 a -- 49.1 49.1 49.9 48.8 -- -- 0.0 0.0 --- 0.00 29.278
12/11/2004 10:00 a -- 51.0 51.0 52.0 49.8 -- -- 0.0 2.0 S 0.00 29.279
12/11/2004 10:30 a -- 52.5 52.5 54.4 51.5 -- -- 0.0 2.0 S 0.00 29.273
12/11/2004 11:00 a -- 54.0 54.0 55.4 52.6 -- -- 0.0 1.0 SSW 0.00 29.265
12/11/2004 11:30 a -- 54.1 54.1 56.1 52.8 -- -- 0.0 2.0 SSW 0.00 29.260
12/11/2004 12:00 p -- 54.2 54.2 55.5 52.7 -- -- 0.0 2.0 W 0.00 29.248
12/11/2004 12:30 p -- 54.9 54.9 55.8 54.0 -- -- 0.0 4.0 SE 0.00 29.239
12/11/2004 1:00 p -- 55.0 55.0 56.5 54.0 -- -- 0.0 5.0 SE 0.00 29.235
12/11/2004 1:30 p -- 55.4 55.4 56.2 54.6 -- -- 0.0 3.0 SE 0.00 29.228
12/11/2004 2:00 p -- 54.9 54.9 55.5 54.0 -- -- 0.0 2.0 S 0.00 29.224
12/11/2004 2:30 p -- 53.7 53.7 54.4 53.0 -- -- 0.0 3.0 S 0.00 29.230
12/11/2004 3:00 p -- 53.6 53.6 54.7 53.0 -- -- 0.0 2.0 SSW 0.00 29.237
12/11/2004 3:30 p -- 52.4 52.4 53.0 52.0 -- -- 0.0 2.0 S 0.00 29.240
12/11/2004 4:00 p -- 52.1 52.1 52.9 51.7 -- -- 0.0 2.0 S 0.00 29.247
12/11/2004 4:30 p -- 51.5 51.5 52.4 50.9 -- -- 0.0 2.0 S 0.00 29.257
12/11/2004 5:00 p -- 50.3 50.3 51.1 49.6 -- -- 1.0 5.0 SE 0.00 29.276
12/11/2004 5:30 p -- 49.2 49.2 49.8 48.8 -- -- 0.0 5.0 SE 0.00 29.283
12/11/2004 6:00 p -- 48.7 48.7 49.1 48.2 -- -- 0.0 3.0 SE 0.00 29.298
12/11/2004 6:30 p -- 47.7 47.7 48.3 46.9 -- -- 1.0 5.0 SSE 0.00 29.310
12/11/2004 7:00 p -- 45.9 45.9 46.8 45.1 -- -- 0.0 2.0 SW 0.00 29.324
12/11/2004 7:30 p -- 44.7 44.7 45.7 44.2 -- -- 0.0 2.0 SW 0.00 29.330
12/11/2004 8:00 p -- 43.9 43.9 45.2 43.2 -- -- 0.0 2.0 SW 0.00 29.333
12/11/2004 8:30 p -- 42.6 42.6 43.7 41.8 -- -- 0.0 0.0 --- 0.00 29.332
12/11/2004 9:00 p -- 41.7 41.7 42.1 41.3 -- -- 0.0 0.0 --- 0.00 29.341
12/11/2004 9:30 p -- 41.7 41.7 42.2 41.2 -- -- 0.0 0.0 --- 0.00 29.351
12/11/2004 10:00 p -- 41.6 41.6 42.2 40.8 -- -- 0.0 0.0 --- 0.00 29.360
12/11/2004 10:30 p -- 40.4 40.4 41.7 39.7 -- -- 0.0 0.0 --- 0.00 29.376
12/11/2004 11:00 p -- 39.9 39.9 40.0 39.5 -- -- 0.0 0.0 --- 0.00 29.383
12/11/2004 11:30 p -- 39.8 39.8 40.1 39.4 -- -- 0.0 0.0 --- 0.00 29.387
12/12/2004 12:00 a -- 39.8 39.8 40.3 39.2 -- -- 0.0 0.0 --- 0.00 29.388
12/12/2004 12:30 a -- 41.8 41.8 42.6 40.3 -- -- 0.0 1.0 SW 0.00 29.389
12/12/2004 1:00 a -- 42.9 42.9 43.1 42.5 -- -- 0.0 2.0 SW 0.00 29.385
12/12/2004 1:30 a -- 42.9 42.9 43.2 42.7 -- -- 0.0 3.0 ENE 0.00 29.395
12/12/2004 2:00 a -- 43.0 43.0 43.3 42.7 -- -- 0.0 3.0 NW 0.00 29.401
12/12/2004 2:30 a -- 42.8 42.8 43.1 42.4 -- -- 0.0 4.0 SSE 0.00 29.412
12/12/2004 3:00 a -- 42.6 42.6 42.9 42.3 -- -- 0.0 4.0 SE 0.00 29.413
12/12/2004 3:30 a -- 42.4 42.4 42.8 42.1 -- -- 0.0 2.0 SE 0.00 29.412
12/12/2004 4:00 a -- 42.3 42.3 42.6 41.9 -- -- 0.0 4.0 SSE 0.00 29.426
12/12/2004 4:30 a -- 42.4 42.4 42.7 42.1 -- -- 0.0 3.0 SE 0.00 29.438
12/12/2004 5:00 a -- 42.2 42.2 42.4 41.9 -- -- 1.0 5.0 SE 0.00 29.446
12/12/2004 5:30 a -- 42.2 42.2 42.5 41.8 -- -- 1.0 5.0 SE 0.00 29.462
12/12/2004 6:00 a -- 41.7 41.7 42.2 41.4 -- -- 1.0 6.0 SE 0.00 29.474
12/12/2004 6:30 a -- 41.6 41.6 41.9 41.3 -- -- 1.0 4.0 SE 0.00 29.489
12/12/2004 7:00 a -- 40.9 40.9 41.3 40.5 -- -- 0.0 4.0 SE 0.00 29.508
12/12/2004 7:30 a -- 41.4 41.4 41.9 40.9 -- -- 0.0 3.0 SE 0.00 29.518
12/12/2004 8:00 a -- 42.1 42.1 42.5 41.7 -- -- 0.0 2.0 ESE 0.00 29.533
12/12/2004 8:30 a -- 42.7 42.7 43.3 42.0 -- -- 0.0 4.0 SE 0.00 29.551
12/12/2004 9:00 a -- 43.3 43.3 44.7 42.3 -- -- 1.0 6.0 SE 0.00 29.553
12/12/2004 9:30 a -- 43.7 43.7 44.7 43.0 -- -- 2.0 7.0 SE 0.00 29.557
12/12/2004 10:00 a -- 46.4 46.4 48.3 44.5 -- -- 1.0 9.0 SE 0.00 29.560
12/12/2004 10:30 a -- 46.9 46.9 47.6 46.2 -- -- 1.0 7.0 SE 0.00 29.556
12/12/2004 11:00 a -- 46.9 46.9 47.8 46.0 -- -- 2.0 7.0 SE 0.00 29.549
12/12/2004 11:30 a -- 47.0 47.0 47.7 46.4 -- -- 1.0 6.0 SE 0.00 29.541
12/12/2004 12:00 p -- 47.4 47.4 48.3 46.8 -- -- 2.0 7.0 SE 0.00 29.538
12/12/2004 12:30 p -- 48.2 48.2 48.7 47.7 -- -- 1.0 5.0 SE 0.00 29.537
12/12/2004 1:00 p -- 47.7 47.7 48.4 47.1 -- -- 1.0 4.0 SE 0.00 29.541
12/12/2004 1:30 p -- 47.9 47.9 48.7 47.3 -- -- 1.0 7.0 ESE 0.00 29.539
12/12/2004 2:00 p -- 47.7 47.7 48.5 46.9 -- -- 1.0 7.0 ESE 0.00 29.532
12/12/2004 2:30 p -- 47.6 47.6 48.7 46.6 -- -- 1.0 8.0 SE 0.00 29.531
12/12/2004 3:00 p -- 46.9 46.9 47.5 46.5 -- -- 1.0 8.0 SE 0.00 29.535
12/12/2004 3:30 p -- 45.7 45.7 46.6 45.3 -- -- 1.0 7.0 SE 0.00 29.534
12/12/2004 4:00 p -- 45.7 45.7 46.5 45.1 -- -- 1.0 4.0 SSE 0.00 29.552
12/12/2004 4:30 p -- 44.4 44.4 45.4 43.4 -- -- 0.0 4.0 SE 0.00 29.556
12/12/2004 5:00 p -- 44.1 44.1 44.5 43.7 -- -- 0.0 5.0 SSE 0.00 29.552
12/12/2004 5:30 p -- 43.7 43.7 44.0 43.5 -- -- 0.0 2.0 W 0.00 29.555
12/12/2004 6:00 p -- 43.2 43.2 43.8 42.7 -- -- 0.0 1.0 --- 0.00 29.560
12/12/2004 6:30 p -- 43.4 43.4 43.7 42.9 -- -- 0.0 2.0 NW 0.00 29.557
12/12/2004 7:00 p -- 43.2 43.2 43.5 43.0 -- -- 0.0 1.0 --- 0.00 29.543
12/12/2004 7:30 p -- 43.3 43.3 43.9 42.5 -- -- 0.0 1.0 NW 0.00 29.529
12/12/2004 8:00 p -- 43.3 43.3 43.8 42.5 -- -- 0.0 2.0 NNW 0.00 29.523
12/12/2004 8:30 p -- 43.5 43.5 43.8 43.3 -- -- 0.0 3.0 SE 0.00 29.510
12/12/2004 9:00 p -- 43.3 43.3 43.5 43.1 -- -- 0.0 2.0 SE 0.00 29.511
12/12/2004 9:30 p -- 42.9 42.9 43.6 42.4 -- -- 0.0 0.0 --- 0.00 29.512
12/12/2004 10:00 p -- 42.8 42.8 43.8 42.1 -- -- 0.0 0.0 --- 0.00 29.509
12/12/2004 10:30 p -- 41.9 41.9 43.3 41.4 -- -- 0.0 0.0 --- 0.00 29.502
12/12/2004 11:00 p -- 41.9 41.9 42.3 41.6 -- -- 0.0 0.0 --- 0.00 29.497
12/12/2004 11:30 p -- 42.1 42.1 42.3 41.7 -- -- 0.0 0.0 --- 0.00 29.480
12/13/2004 12:00 a -- 42.1 42.1 42.6 41.4 -- -- 0.0 0.0 --- 0.00 29.467
12/13/2004 12:30 a -- 42.0 42.0 42.5 41.5 -- -- 0.0 0.0 --- 0.00 29.458
12/13/2004 1:00 a -- 42.5 42.5 42.8 42.2 -- -- 0.0 0.0 --- 0.00 29.447
12/13/2004 1:30 a -- 42.9 42.9 43.3 42.6 -- -- 0.0 0.0 --- 0.00 29.449
12/13/2004 2:00 a -- 43.1 43.1 43.4 42.9 -- -- 0.0 0.0 --- 0.00 29.446
12/13/2004 2:30 a -- 42.6 42.6 43.1 42.4 -- -- 0.0 0.0 --- 0.00 29.440
12/13/2004 3:00 a -- 41.9 41.9 42.4 41.5 -- -- 0.0 0.0 --- 0.00 29.437
12/13/2004 3:30 a -- 41.5 41.5 42.0 41.1 -- -- 0.0 0.0 --- 0.00 29.418
12/13/2004 4:00 a -- 41.2 41.2 41.6 40.8 -- -- 0.0 0.0 --- 0.00 29.417
12/13/2004 4:30 a -- 40.9 40.9 41.3 40.6 -- -- 0.0 0.0 --- 0.00 29.419
12/13/2004 5:00 a -- 40.8 40.8 41.1 40.4 -- -- 0.0 0.0 --- 0.00 29.423
12/13/2004 5:30 a -- 41.4 41.4 41.9 41.0 -- -- 0.0 0.0 --- 0.00 29.434
12/13/2004 6:00 a -- 41.4 41.4 41.9 41.1 -- -- 0.0 0.0 --- 0.00 29.435
12/13/2004 6:30 a -- 41.8 41.8 42.7 41.2 -- -- 0.0 0.0 --- 0.00 29.433
12/13/2004 7:00 a -- 42.6 42.6 42.9 42.2 -- -- 0.0 0.0 --- 0.00 29.432
12/13/2004 7:30 a -- 43.5 43.5 43.9 42.6 -- -- 0.0 4.0 SE 0.00 29.423
12/13/2004 8:00 a -- 44.3 44.3 45.0 43.8 -- -- 0.0 1.0 E 0.00 29.431
12/13/2004 8:30 a -- 45.3 45.3 45.9 44.5 -- -- 0.0 4.0 SE 0.00 29.435
12/13/2004 9:00 a -- 45.4 45.4 46.0 44.7 -- -- 1.0 7.0 SE 0.00 29.446
12/13/2004 9:30 a -- 45.1 45.1 45.8 44.6 -- -- 0.0 4.0 SE 0.00 29.452
12/13/2004 10:00 a -- 46.6 46.6 47.4 45.5 -- -- 0.0 3.0 SSE 0.00 29.456
12/13/2004 10:30 a -- 48.5 48.5 50.6 47.3 -- -- 0.0 3.0 SSE 0.00 29.452
12/13/2004 11:00 a -- 50.9 50.9 55.6 49.1 -- -- 1.0 5.0 SE 0.00 29.439
12/13/2004 11:30 a -- 48.0 48.0 55.7 44.3 -- -- 2.0 9.0 SE 0.01 29.437
12/13/2004 12:00 p -- 42.8 42.8 45.2 40.4 -- -- 2.0 11.0 SE 0.01 29.449
12/13/2004 12:30 p -- 44.8 44.8 46.0 43.5 -- -- 1.0 8.0 SE 0.00 29.442
12/13/2004 1:00 p -- 45.0 45.0 46.5 44.3 -- -- 3.0 10.0 SE 0.00 29.444
12/13/2004 1:30 p -- 46.1 46.1 46.8 45.5 -- -- 3.0 11.0 SE 0.00 29.452
12/13/2004 2:00 p -- 46.3 46.3 47.2 45.6 -- -- 4.0 16.0 SE 0.00 29.458
12/13/2004 2:30 p -- 45.6 45.6 46.4 44.9 -- -- 3.0 11.0 SE 0.00 29.469
12/13/2004 3:00 p -- 44.3 44.3 45.4 43.5 -- -- 1.0 6.0 SE 0.00 29.486
12/13/2004 3:30 p -- 44.4 44.4 45.5 43.3 -- -- 2.0 8.0 SE 0.00 29.500
12/13/2004 4:00 p -- 42.8 42.8 43.4 42.1 -- -- 2.0 10.0 SE 0.00 29.515
12/13/2004 4:30 p -- 41.9 41.9 42.4 41.3 -- -- 2.0 10.0 SE 0.00 29.534
12/13/2004 5:00 p -- 41.0 41.0 41.7 40.3 -- -- 1.0 7.0 SE 0.00 29.546
12/13/2004 5:30 p -- 40.6 40.6 40.9 40.2 -- -- 2.0 10.0 SE 0.00 29.569
12/13/2004 6:00 p -- 40.0 40.0 40.5 39.3 -- -- 2.0 9.0 SE 0.00 29.574
12/13/2004 6:30 p -- 39.2 39.2 39.8 38.6 -- -- 1.0 7.0 SE 0.00 29.593
12/13/2004 7:00 p -- 39.3 39.3 39.6 38.9 -- -- 1.0 7.0 SE 0.00 29.606
12/13/2004 7:30 p -- 39.3 39.3 39.6 39.1 -- -- 1.0 5.0 SE 0.00 29.619
12/13/2004 8:00 p -- 39.3 39.3 39.6 39.0 -- -- 1.0 7.0 SE 0.00 29.625
12/13/2004 8:30 p -- 39.1 39.1 39.5 38.8 -- -- 1.0 5.0 SE 0.00 29.636
12/13/2004 9:00 p -- 38.8 38.8 39.4 38.3 -- -- 1.0 6.0 SE 0.00 29.644
12/13/2004 9:30 p -- 38.2 38.2 38.6 37.5 -- -- 1.0 5.0 SE 0.00 29.646
12/13/2004 10:00 p -- 37.5 37.5 37.9 37.0 -- -- 0.0 6.0 SE 0.00 29.655
12/13/2004 10:30 p -- 36.7 36.7 37.0 36.2 -- -- 1.0 4.0 SE 0.00 29.663
12/13/2004 11:00 p -- 36.5 36.5 36.8 36.1 -- -- 1.0 5.0 SE 0.00 29.667
12/13/2004 11:30 p -- 36.3 36.3 36.8 36.0 -- -- 0.0 3.0 SE 0.00 29.673
12/14/2004 12:00 a -- 36.2 36.2 36.8 35.7 -- -- 1.0 4.0 SE 0.00 29.679
12/14/2004 12:30 a -- 35.8 35.8 36.4 35.2 -- -- 0.0 4.0 SE 0.00 29.682
12/14/2004 1:00 a -- 35.8 35.8 36.3 35.4 -- -- 1.0 6.0 SE 0.00 29.693
12/14/2004 1:30 a -- 35.5 35.5 35.9 35.1 -- -- 1.0 6.0 SSE 0.00 29.697
12/14/2004 2:00 a -- 35.2 35.2 35.6 35.0 -- -- 0.0 3.0 WSW 0.00 29.707
12/14/2004 2:30 a -- 35.6 35.6 36.2 35.1 -- -- 0.0 1.0 --- 0.00 29.723
12/14/2004 3:00 a -- 35.0 35.0 36.0 34.5 -- -- 0.0 0.0 --- 0.00 29.727
12/14/2004 3:30 a -- 34.0 34.0 34.8 33.1 -- -- 0.0 0.0 --- 0.00 29.737
12/14/2004 4:00 a -- 33.7 33.7 35.1 32.3 -- -- 0.0 0.0 --- 0.00 29.744
12/14/2004 4:30 a -- 35.4 35.4 36.0 34.9 -- -- 0.0 0.0 --- 0.00 29.754
12/14/2004 5:00 a -- 35.1 35.1 36.0 34.5 -- -- 0.0 0.0 --- 0.00 29.760
12/14/2004 5:30 a -- 34.0 34.0 34.5 33.6 -- -- 0.0 0.0 --- 0.00 29.778
12/14/2004 6:00 a -- 35.5 35.5 36.9 34.2 -- -- 0.0 0.0 --- 0.00 29.792
12/14/2004 6:30 a -- 36.6 36.6 37.6 35.6 -- -- 0.0 2.0 SE 0.00 29.804
12/14/2004 7:00 a -- 37.9 37.9 38.4 37.1 -- -- 1.0 7.0 SE 0.00 29.817
12/14/2004 7:30 a -- 38.2 38.2 38.6 37.9 -- -- 2.0 8.0 SE 0.00 29.836
12/14/2004 8:00 a -- 37.5 37.5 38.1 36.7 -- -- 1.0 7.0 SE 0.00 29.858
12/14/2004 8:30 a -- 37.6 37.6 38.6 36.6 -- -- 3.0 14.0 SE 0.00 29.882
12/14/2004 9:00 a -- 37.1 37.1 37.5 36.7 -- -- 3.0 11.0 SE 0.00 29.897
12/14/2004 9:30 a -- 37.4 37.4 38.2 36.6 -- -- 3.0 13.0 SE 0.00 29.903
12/14/2004 10:00 a -- 38.3 38.3 39.4 37.2 -- -- 3.0 10.0 SE 0.00 29.921
12/14/2004 10:30 a -- 38.1 38.1 39.4 37.1 -- -- 3.0 11.0 SE 0.00 29.923
12/14/2004 11:00 a -- 38.9 38.9 39.8 38.1 -- -- 3.0 10.0 SE 0.00 29.919
12/14/2004 11:30 a -- 39.0 39.0 40.0 38.0 -- -- 3.0 11.0 SE 0.00 29.926
12/14/2004 12:00 p -- 38.0 38.0 39.4 36.9 -- -- 4.0 12.0 SE 0.00 29.936
12/14/2004 12:30 p -- 37.2 37.2 38.1 36.3 -- -- 4.0 12.0 SE 0.00 29.936
12/14/2004 1:00 p -- 36.0 36.0 37.3 35.1 -- -- 4.0 12.0 SE 0.00 29.935
12/14/2004 1:30 p -- 37.1 37.1 37.9 36.2 -- -- 3.0 9.0 SE 0.00 29.942
12/14/2004 2:00 p -- 36.7 36.7 37.5 35.9 -- -- 3.0 11.0 SE 0.00 29.944
12/14/2004 2:30 p -- 35.4 35.4 36.7 34.9 -- -- 4.0 12.0 SE 0.00 29.949
12/14/2004 3:00 p -- 34.9 34.9 35.7 33.8 -- -- 3.0 16.0 SE 0.00 29.964
12/14/2004 3:30 p -- 34.5 34.5 35.4 33.6 -- -- 2.0 7.0 SE 0.00 29.984
12/14/2004 4:00 p -- 33.6 33.6 34.1 33.2 -- -- 2.0 8.0 SE 0.00 29.999
12/14/2004 4:30 p -- 33.2 33.2 33.7 32.5 -- -- 2.0 8.0 SE 0.00 30.014
12/14/2004 5:00 p -- 32.0 32.0 32.7 31.4 -- -- 2.0 11.0 SE 0.00 30.035
12/14/2004 5:30 p -- 31.2 31.2 32.2 30.4 -- -- 3.0 11.0 SE 0.00 30.059
12/14/2004 6:00 p -- 30.8 30.8 31.4 30.4 -- -- 2.0 11.0 SE 0.00 30.073
12/14/2004 6:30 p -- 30.1 30.1 31.0 29.3 -- -- 2.0 8.0 SE 0.00 30.087
12/14/2004 7:00 p -- 29.5 29.5 30.0 29.1 -- -- 2.0 8.0 SE 0.00 30.100
12/14/2004 7:30 p -- 29.4 29.4 29.9 29.2 -- -- 1.0 5.0 SE 0.00 30.110
12/14/2004 8:00 p -- 28.8 28.8 29.4 28.4 -- -- 1.0 4.0 SSE 0.00 30.112
12/14/2004 8:30 p -- 29.3 29.3 29.9 28.9 -- -- 1.0 7.0 SSE 0.00 30.126
12/14/2004 9:00 p -- 29.3 29.3 30.1 28.7 -- -- 1.0 6.0 SE 0.00 30.136
12/14/2004 9:30 p -- 29.6 29.6 30.2 29.1 -- -- 1.0 5.0 SE 0.00 30.141
12/14/2004 10:00 p -- 29.3 29.3 29.9 28.7 -- -- 1.0 4.0 SE 0.00 30.142
12/14/2004 10:30 p -- 29.0 29.0 29.6 27.9 -- -- 0.0 3.0 SE 0.00 30.145
12/14/2004 11:00 p -- 28.3 28.3 29.0 27.8 -- -- 0.0 3.0 SE 0.00 30.157
12/14/2004 11:30 p -- 28.5 28.5 29.0 27.9 -- -- 1.0 6.0 SE 0.00 30.162
12/15/2004 12:00 a -- 28.2 28.2 28.6 27.6 -- -- 1.0 5.0 SE 0.00 30.161
12/15/2004 12:30 a -- 27.9 27.9 28.4 27.3 -- -- 2.0 6.0 SE 0.00 30.165
12/15/2004 1:00 a -- 27.6 27.6 28.0 27.1 -- -- 1.0 7.0 SE 0.00 30.172
12/15/2004 1:30 a -- 27.1 27.1 27.6 26.7 -- -- 2.0 5.0 SE 0.00 30.172
12/15/2004 2:00 a -- 26.9 26.9 27.4 26.5 -- -- 2.0 9.0 SE 0.00 30.178
12/15/2004 2:30 a -- 26.5 26.5 27.0 26.0 -- -- 2.0 9.0 SE 0.00 30.182
12/15/2004 3:00 a -- 26.5 26.5 26.9 26.1 -- -- 1.0 7.0 SE 0.00 30.187
12/15/2004 3:30 a -- 26.4 26.4 26.7 25.5 -- -- 1.0 5.0 SE 0.00 30.191
12/15/2004 4:00 a -- 26.0 26.0 26.4 25.6 -- -- 2.0 7.0 SE 0.00 30.199
12/15/2004 4:30 a -- 25.8 25.8 26.1 25.4 -- -- 1.0 5.0 SSE 0.00 30.196
12/15/2004 5:00 a -- 25.6 25.6 26.0 25.3 -- -- 1.0 4.0 SE 0.00 30.206
12/15/2004 5:30 a -- 24.7 24.7 25.6 23.6 -- -- 1.0 8.0 SE 0.00 30.225
12/15/2004 6:00 a -- 23.5 23.5 24.4 22.9 -- -- 1.0 6.0 SE 0.00 30.236
12/15/2004 6:30 a -- 23.4 23.4 24.2 22.9 -- -- 1.0 7.0 SE 0.00 30.251
12/15/2004 7:00 a -- 23.4 23.4 23.8 22.8 -- -- 2.0 7.0 SE 0.00 30.257
12/15/2004 7:30 a -- 23.8 23.8 24.6 23.0 -- -- 2.0 7.0 SE 0.00 30.268
12/15/2004 8:00 a -- 24.8 24.8 26.0 23.5 -- -- 1.0 5.0 SE 0.00 30.281
12/15/2004 8:30 a -- 26.0 26.0 26.7 25.4 -- -- 2.0 7.0 SE 0.00 30.286
12/15/2004 9:00 a -- 26.6 26.6 27.6 25.6 -- -- 2.0 8.0 SE 0.00 30.289
12/15/2004 9:30 a -- 27.2 27.2 28.2 26.3 -- -- 2.0 10.0 SE 0.00 30.291
12/15/2004 10:00 a -- 28.2 28.2 29.5 27.4 -- -- 2.0 10.0 SSE 0.00 30.295
12/15/2004 10:30 a -- 29.7 29.7 31.1 28.5 -- -- 2.0 10.0 S 0.00 30.288
12/15/2004 11:00 a -- 31.1 31.1 31.9 30.4 -- -- 3.0 8.0 SSW 0.00 30.270
12/15/2004 11:30 a -- 31.9 31.9 32.9 30.8 -- -- 3.0 11.0 S 0.00 30.262
12/15/2004 12:00 p -- 32.3 32.3 33.5 31.4 -- -- 3.0 12.0 SSE 0.00 30.254
12/15/2004 12:30 p -- 32.8 32.8 34.2 32.0 -- -- 3.0 10.0 SE 0.00 30.246
12/15/2004 1:00 p -- 34.3 34.3 35.7 33.1 -- -- 2.0 10.0 SE 0.00 30.236
12/15/2004 1:30 p -- 35.0 35.0 35.7 34.1 -- -- 2.0 7.0 SSE 0.00 30.230
12/15/2004 2:00 p -- 35.5 35.5 36.2 34.7 -- -- 2.0 11.0 SE 0.00 30.220
12/15/2004 2:30 p -- 35.7 35.7 36.4 35.2 -- -- 2.0 11.0 SE 0.00 30.227
12/15/2004 3:00 p -- 36.0 36.0 36.5 35.3 -- -- 2.0 7.0 SE 0.00 30.230
12/15/2004 3:30 p -- 36.0 36.0 36.8 35.1 -- -- 1.0 7.0 SE 0.00 30.238
12/15/2004 4:00 p -- 35.2 35.2 35.8 34.6 -- -- 1.0 8.0 SE 0.00 30.249
12/15/2004 4:30 p -- 34.6 34.6 34.9 34.1 -- -- 2.0 7.0 SE 0.00 30.253
12/15/2004 5:00 p -- 34.0 34.0 34.5 33.5 -- -- 1.0 5.0 SE 0.00 30.263
12/15/2004 5:30 p -- 33.5 33.5 34.1 32.9 -- -- 1.0 4.0 SE 0.00 30.281
12/15/2004 6:00 p -- 32.3 32.3 33.3 31.6 -- -- 0.0 5.0 SE 0.00 30.293
12/15/2004 6:30 p -- 32.8 32.8 33.2 32.3 -- -- 1.0 6.0 SE 0.00 30.302
12/15/2004 7:00 p -- 32.6 32.6 33.2 32.2 -- -- 1.0 3.0 SE 0.00 30.311
12/15/2004 7:30 p -- 32.2 32.2 33.2 30.4 -- -- 0.0 2.0 SE 0.00 30.310
12/15/2004 8:00 p -- 29.1 29.1 30.7 28.4 -- -- 0.0 0.0 --- 0.00 30.309
12/15/2004 8:30 p -- 27.9 27.9 28.7 27.5 -- -- 0.0 0.0 --- 0.00 30.311
12/15/2004 9:00 p -- 28.2 28.2 29.4 27.3 -- -- 0.0 0.0 --- 0.00 30.306
12/15/2004 9:30 p -- 27.3 27.3 27.9 26.4 -- -- 0.0 0.0 --- 0.00 30.307
12/15/2004 10:00 p -- 27.6 27.6 28.2 27.1 -- -- 0.0 0.0 --- 0.00 30.307
12/15/2004 10:30 p -- 26.5 26.5 27.4 25.7 -- -- 0.0 0.0 --- 0.00 30.310
12/15/2004 11:00 p -- 26.9 26.9 29.9 25.2 -- -- 0.0 0.0 --- 0.00 30.307
12/15/2004 11:30 p -- 25.5 25.5 26.3 24.8 -- -- 0.0 0.0 --- 0.00 30.306
12/16/2004 12:00 a -- 25.7 25.7 26.1 25.2 -- -- 0.0 0.0 --- 0.00 30.297
12/16/2004 12:30 a -- 25.8 25.8 26.2 25.2 -- -- 0.0 0.0 --- 0.00 30.299
12/16/2004 1:00 a -- 25.8 25.8 26.6 24.9 -- -- 0.0 0.0 --- 0.00 30.298
12/16/2004 1:30 a -- 26.7 26.7 26.9 26.3 -- -- 0.0 0.0 --- 0.00 30.307
12/16/2004 2:00 a -- 26.5 26.5 26.9 25.9 -- -- 0.0 0.0 --- 0.00 30.305
12/16/2004 2:30 a -- 25.9 25.9 26.4 25.5 -- -- 0.0 0.0 --- 0.00 30.299
12/16/2004 3:00 a -- 25.1 25.1 25.7 24.7 -- -- 0.0 0.0 --- 0.00 30.302
12/16/2004 3:30 a -- 25.4 25.4 25.8 25.0 -- -- 0.0 0.0 --- 0.00 30.292
12/16/2004 4:00 a -- 25.4 25.4 25.9 25.1 -- -- 0.0 0.0 --- 0.00 30.291
12/16/2004 4:30 a -- 25.4 25.4 25.6 25.1 -- -- 0.0 0.0 --- 0.00 30.286
12/16/2004 5:00 a -- 24.4 24.4 25.4 23.8 -- -- 0.0 0.0 --- 0.00 30.285
12/16/2004 5:30 a -- 24.3 24.3 24.6 23.8 -- -- 0.0 0.0 --- 0.00 30.283
12/16/2004 6:00 a -- 23.9 23.9 24.3 23.2 -- -- 0.0 0.0 --- 0.00 30.285
12/16/2004 6:30 a -- 23.8 23.8 24.3 23.5 -- -- 0.0 0.0 --- 0.00 30.286
12/16/2004 7:00 a -- 23.9 23.9 24.3 23.6 -- -- 0.0 0.0 --- 0.00 30.296
12/16/2004 7:30 a -- 24.4 24.4 24.7 23.8 -- -- 0.0 0.0 --- 0.00 30.302
12/16/2004 8:00 a -- 25.9 25.9 27.4 24.6 -- -- 0.0 0.0 --- 0.00 30.306
12/16/2004 8:30 a -- 28.5 28.5 29.9 26.9 -- -- 0.0 0.0 --- 0.00 30.306
12/16/2004 9:00 a -- 31.2 31.2 32.4 29.8 -- -- 0.0 3.0 SE 0.00 30.300
12/16/2004 9:30 a -- 33.0 33.0 34.3 32.0 -- -- 0.0 2.0 S 0.00 30.299
12/16/2004 10:00 a -- 34.8 34.8 36.3 33.5 -- -- 1.0 4.0 SE 0.00 30.295
12/16/2004 10:30 a -- 37.5 37.5 39.1 35.7 -- -- 1.0 5.0 SE 0.00 30.273
12/16/2004 11:00 a -- 39.4 39.4 40.5 38.5 -- -- 1.0 5.0 SE 0.00 30.265
12/16/2004 11:30 a -- 40.9 40.9 41.7 40.0 -- -- 1.0 6.0 SE 0.00 30.242
12/16/2004 12:00 p -- 41.8 41.8 42.9 41.0 -- -- 1.0 6.0 SSE 0.00 30.230
12/16/2004 12:30 p -- 42.7 42.7 43.3 41.8 -- -- 1.0 7.0 SE 0.00 30.205
12/16/2004 1:00 p -- 43.6 43.6 44.2 42.9 -- -- 1.0 4.0 SSE 0.00 30.188
12/16/2004 1:30 p -- 44.1 44.1 44.7 43.2 -- -- 1.0 6.0 SE 0.00 30.180
12/16/2004 2:00 p -- 43.9 43.9 44.8 43.4 -- -- 1.0 6.0 SSE 0.00 30.171
12/16/2004 2:30 p -- 43.5 43.5 43.9 43.1 -- -- 1.0 4.0 SSE 0.00 30.159
12/16/2004 3:00 p -- 42.7 42.7 43.5 41.4 -- -- 0.0 2.0 SSE 0.00 30.148
12/16/2004 3:30 p -- 42.2 42.2 43.2 41.6 -- -- 0.0 2.0 S 0.00 30.144
12/16/2004 4:00 p -- 42.4 42.4 43.2 41.3 -- -- 0.0 0.0 --- 0.00 30.137
12/16/2004 4:30 p -- 40.7 40.7 41.2 40.3 -- -- 0.0 2.0 S 0.00 30.136
12/16/2004 5:00 p -- 40.4 40.4 40.8 40.2 -- -- 0.0 3.0 S 0.00 30.131
12/16/2004 5:30 p -- 39.9 39.9 40.4 39.4 -- -- 0.0 2.0 SSE 0.00 30.124
12/16/2004 6:00 p -- 39.5 39.5 40.0 39.1 -- -- 0.0 2.0 SSE 0.00 30.122
12/16/2004 6:30 p -- 38.7 38.7 39.4 38.2 -- -- 0.0 2.0 E 0.00 30.122
12/16/2004 7:00 p -- 37.4 37.4 38.3 36.5 -- -- 0.0 0.0 --- 0.00 30.116
12/16/2004 7:30 p -- 36.4 36.4 36.7 35.9 -- -- 0.0 0.0 --- 0.00 30.106
12/16/2004 8:00 p -- 35.6 35.6 35.9 35.3 -- -- 0.0 0.0 --- 0.00 30.098
12/16/2004 8:30 p -- 34.6 34.6 35.4 33.8 -- -- 0.0 0.0 --- 0.00 30.092
12/16/2004 9:00 p -- 33.4 33.4 33.9 32.7 -- -- 0.0 0.0 --- 0.00 30.091
12/16/2004 9:30 p -- 32.3 32.3 33.1 31.3 -- -- 0.0 0.0 --- 0.00 30.076
12/16/2004 10:00 p -- 32.3 32.3 33.7 31.7 -- -- 0.0 0.0 --- 0.00 30.065
12/16/2004 10:30 p -- 32.8 32.8 33.9 31.9 -- -- 0.0 0.0 --- 0.00 30.051
12/16/2004 11:00 p -- 31.8 31.8 32.3 31.1 -- -- 0.0 0.0 --- 0.00 30.036
12/16/2004 11:30 p -- 31.8 31.8 32.2 31.3 -- -- 0.0 0.0 --- 0.00 30.025
12/17/2004 12:00 a -- 31.6 31.6 31.9 31.1 -- -- 0.0 0.0 --- 0.00 30.017
12/17/2004 12:30 a -- 31.1 31.1 31.8 30.6 -- -- 0.0 0.0 --- 0.00 29.991
12/17/2004 1:00 a -- 31.1 31.1 32.3 30.5 -- -- 0.0 0.0 --- 0.00 29.981
12/17/2004 1:30 a -- 33.3 33.3 34.0 32.3 -- -- 0.0 0.0 --- 0.00 29.977
12/17/2004 2:00 a -- 34.1 34.1 34.9 33.7 -- -- 0.0 1.0 ENE 0.00 29.976
12/17/2004 2:30 a -- 34.0 34.0 34.4 33.8 -- -- 0.0 0.0 --- 0.00 29.976
12/17/2004 3:00 a -- 33.4 33.4 34.3 32.9 -- -- 0.0 0.0 --- 0.00 29.970
12/17/2004 3:30 a -- 32.7 32.7 33.3 32.2 -- -- 0.0 0.0 --- 0.00 29.957
12/17/2004 4:00 a -- 32.1 32.1 32.7 31.6 -- -- 0.0 0.0 --- 0.00 29.958
12/17/2004 4:30 a -- 33.1 33.1 34.8 31.9 -- -- 0.0 1.0 --- 0.00 29.961
12/17/2004 5:00 a -- 35.4 35.4 35.8 34.8 -- -- 0.0 1.0 E 0.00 29.972
12/17/2004 5:30 a -- 35.4 35.4 35.9 34.6 -- -- 0.0 1.0 E 0.00 29.979
12/17/2004 6:00 a -- 34.4 34.4 34.7 33.7 -- -- 0.0 3.0 SE 0.00 29.993
12/17/2004 6:30 a -- 33.9 33.9 34.6 33.6 -- -- 0.0 2.0 SE 0.00 29.998
12/17/2004 7:00 a -- 33.3 33.3 33.8 32.8 -- -- 0.0 1.0 --- 0.00 30.000
12/17/2004 7:30 a -- 32.6 32.6 32.9 32.4 -- -- 0.0 2.0 SW 0.00 30.005
12/17/2004 8:00 a -- 33.7 33.7 35.1 32.5 -- -- 0.0 0.0 --- 0.00 30.012
12/17/2004 8:30 a -- 37.2 37.2 39.1 35.1 -- -- 0.0 2.0 SW 0.00 30.025
12/17/2004 9:00 a -- 40.3 40.3 41.1 39.0 -- -- 0.0 2.0 SSW 0.00 30.022
12/17/2004 9:30 a -- 42.3 42.3 43.6 40.8 -- -- 0.0 3.0 SE 0.00 30.037
12/17/2004 10:00 a -- 44.7 44.7 45.9 43.3 -- -- 2.0 9.0 SE 0.00 30.042
12/17/2004 10:30 a -- 46.1 46.1 46.7 45.5 -- -- 3.0 12.0 SE 0.00 30.045
12/17/2004 11:00 a -- 46.8 46.8 47.8 46.1 -- -- 3.0 13.0 SE 0.00 30.044
12/17/2004 11:30 a -- 48.6 48.6 49.7 47.2 -- -- 4.0 13.0 SE 0.00 30.033
12/17/2004 12:00 p -- 48.0 48.0 49.4 46.9 -- -- 4.0 14.0 SE 0.00 30.030
12/17/2004 12:30 p -- 48.1 48.1 49.1 47.0 -- -- 3.0 9.0 SE 0.00 30.033
12/17/2004 1:00 p -- 47.4 47.4 48.2 46.7 -- -- 3.0 11.0 SE 0.00 30.023
12/17/2004 1:30 p -- 48.7 48.7 49.3 47.6 -- -- 3.0 10.0 SE 0.00 30.021
12/17/2004 2:00 p -- 46.8 46.8 47.7 46.2 -- -- 3.0 13.0 SE 0.00 30.034
12/17/2004 2:30 p -- 46.1 46.1 46.5 45.8 -- -- 2.0 8.0 SE 0.00 30.041
12/17/2004 3:00 p -- 45.8 45.8 46.4 45.2 -- -- 2.0 10.0 SE 0.00 30.049
12/17/2004 3:30 p -- 44.7 44.7 45.3 43.9 -- -- 2.0 8.0 SE 0.00 30.059
12/17/2004 4:00 p -- 43.5 43.5 44.0 42.7 -- -- 2.0 7.0 SE 0.00 30.063
12/17/2004 4:30 p -- 41.7 41.7 42.6 40.5 -- -- 1.0 4.0 SE 0.00 30.070
12/17/2004 5:00 p -- 39.7 39.7 40.5 38.1 -- -- 0.0 4.0 SE 0.00 30.087
12/17/2004 5:30 p -- 38.0 38.0 38.6 37.4 -- -- 0.0 1.0 SE 0.00 30.103
12/17/2004 6:00 p -- 38.1 38.1 38.4 37.7 -- -- 0.0 2.0 SE 0.00 30.119
12/17/2004 6:30 p -- 37.4 37.4 37.9 36.5 -- -- 0.0 3.0 S 0.00 30.137
12/17/2004 7:00 p -- 35.6 35.6 36.7 34.7 -- -- 0.0 0.0 --- 0.00 30.149
12/17/2004 7:30 p -- 35.6 35.6 35.9 34.9 -- -- 1.0 4.0 SSW 0.00 30.158
12/17/2004 8:00 p -- 34.6 34.6 35.1 34.1 -- -- 1.0 3.0 SSW 0.00 30.165
12/17/2004 8:30 p -- 33.3 33.3 35.3 31.5 -- -- 0.0 3.0 S 0.00 30.169
12/17/2004 9:00 p -- 32.8 32.8 33.9 31.7 -- -- 0.0 1.0 --- 0.00 30.169
12/17/2004 9:30 p -- 32.0 32.0 33.2 30.9 -- -- 0.0 0.0 --- 0.00 30.167
12/17/2004 10:00 p -- 30.2 30.2 31.5 29.4 -- -- 0.0 2.0 SE 0.00 30.181
12/17/2004 10:30 p -- 29.8 29.8 30.4 29.2 -- -- 0.0 0.0 --- 0.00 30.178
12/17/2004 11:00 p -- 29.2 29.2 30.1 28.6 -- -- 0.0 0.0 --- 0.00 30.179
12/17/2004 11:30 p -- 28.2 28.2 29.7 27.7 -- -- 0.0 1.0 SE 0.00 30.171
12/18/2004 12:00 a -- 28.5 28.5 30.5 26.9 -- -- 0.0 0.0 --- 0.00 30.169
12/18/2004 12:30 a -- 27.4 27.4 27.8 26.6 -- -- 0.0 0.0 --- 0.00 30.160
12/18/2004 1:00 a -- 26.7 26.7 27.3 26.2 -- -- 0.0 0.0 --- 0.00 30.155
12/18/2004 1:30 a -- 26.5 26.5 26.9 26.1 -- -- 0.0 0.0 --- 0.00 30.153
12/18/2004 2:00 a -- 25.9 25.9 26.4 25.5 -- -- 0.0 0.0 --- 0.00 30.151
12/18/2004 2:30 a -- 25.3 25.3 26.1 24.5 -- -- 0.0 0.0 --- 0.00 30.161
12/18/2004 3:00 a -- 25.3 25.3 25.8 24.9 -- -- 0.0 0.0 --- 0.00 30.167
12/18/2004 3:30 a -- 24.6 24.6 25.4 23.9 -- -- 0.0 2.0 SE 0.00 30.156
12/18/2004 4:00 a -- 24.5 24.5 24.8 24.2 -- -- 0.0 0.0 --- 0.00 30.148
12/18/2004 4:30 a -- 24.3 24.3 24.8 23.9 -- -- 0.0 0.0 --- 0.00 30.143
12/18/2004 5:00 a -- 24.1 24.1 24.8 23.5 -- -- 0.0 0.0 --- 0.00 30.142
12/18/2004 5:30 a -- 24.0 24.0 24.5 23.6 -- -- 0.0 0.0 --- 0.00 30.138
12/18/2004 6:00 a -- 24.3 24.3 24.8 23.9 -- -- 0.0 0.0 --- 0.00 30.140
12/18/2004 6:30 a --